Observation data for Sweetwater on 04/23/2019      Previous  Date  Next       Current Mesonet Observations  Soil Data  Daily Summary Page  Observations in Plain Language
KSW1 230500Z 14008KT 20/14 A30 RMK A01 T01950142  RH  071%=      5-min Rain = 0
KSW1 230501Z 14009KT 20/14 A30 RMK A01 T01950142  RH  071%=      5-min Rain = 0
KSW1 230502Z 13008KT 20/14 A30 RMK A01 T01950142  RH  071%=      5-min Rain = 0
KSW1 230503Z 14006KT 20/14 A30 RMK A01 T01950143  RH  072%=      5-min Rain = 0
KSW1 230504Z 14006KT 20/14 A30 RMK A01 T01950143  RH  072%=      5-min Rain = 0
KSW1 230505Z 14006KT 19/14 A30 RMK A01 T01940143  RH  072%=      5-min Rain = 0
KSW1 230506Z 13008KT 19/14 A30 RMK A01 T01940143  RH  072%=      5-min Rain = 0
KSW1 230507Z 13007KT 19/14 A30 RMK A01 T01940143  RH  072%=      5-min Rain = 0
KSW1 230508Z 14007KT 19/14 A30 RMK A01 T01930143  RH  073%=      5-min Rain = 0
KSW1 230509Z 14007KT 19/14 A30 RMK A01 T01930143  RH  073%=      5-min Rain = 0
KSW1 230510Z 14007KT 19/14 A30 RMK A01 T01930143  RH  073%=      5-min Rain = 0
KSW1 230511Z 14007KT 19/14 A30 RMK A01 T01930143  RH  073%=      5-min Rain = 0
KSW1 230512Z 13006KT 19/14 A30 RMK A01 T01930143  RH  073%=      5-min Rain = 0
KSW1 230513Z 13007KT 19/14 A30 RMK A01 T01920143  RH  073%=      5-min Rain = 0
KSW1 230514Z 13007KT 19/14 A30 RMK A01 T01920143  RH  073%=      5-min Rain = 0
KSW1 230515Z 13007KT 19/14 A30 RMK A01 T01920143  RH  073%=      5-min Rain = 0
KSW1 230516Z 13007KT 19/14 A30 RMK A01 T01920143  RH  073%=      5-min Rain = 0
KSW1 230517Z 13006KT 19/14 A30 RMK A01 T01920143  RH  073%=      5-min Rain = 0
KSW1 230518Z 13006KT 19/14 A30 RMK A01 T01920144  RH  074%=      5-min Rain = 0
KSW1 230519Z 13007KT 19/14 A30 RMK A01 T01910144  RH  074%=      5-min Rain = 0
KSW1 230520Z 13007KT 19/14 A30 RMK A01 T01910144  RH  074%=      5-min Rain = 0
KSW1 230521Z 13007KT 19/14 A30 RMK A01 T01910144  RH  074%=      5-min Rain = 0
KSW1 230522Z 13007KT 19/14 A30 RMK A01 T01910143  RH  074%=      5-min Rain = 0
KSW1 230523Z 13007KT 19/14 A30 RMK A01 T01910144  RH  074%=      5-min Rain = 0
KSW1 230524Z 13007KT 19/14 A30 RMK A01 T01910144  RH  074%=      5-min Rain = 0
KSW1 230525Z 13007KT 19/14 A30 RMK A01 T01900144  RH  074%=      5-min Rain = 0
KSW1 230526Z 13007KT 19/14 A30 RMK A01 T01900144  RH  074%=      5-min Rain = 0
KSW1 230527Z 13007KT 19/14 A30 RMK A01 T01900144  RH  075%=      5-min Rain = 0
KSW1 230528Z 13006KT 19/14 A30 RMK A01 T01900144  RH  074%=      5-min Rain = 0
KSW1 230529Z 13006KT 19/14 A30 RMK A01 T01900144  RH  075%=      5-min Rain = 0
KSW1 230530Z 13006KT 19/14 A30 RMK A01 T01900144  RH  075%=      5-min Rain = 0
KSW1 230531Z 13006KT 19/14 A30 RMK A01 T01900144  RH  075%=      5-min Rain = 0
KSW1 230532Z 13006KT 19/14 A30 RMK A01 T01890144  RH  075%=      5-min Rain = 0
KSW1 230533Z 13006KT 19/14 A30 RMK A01 T01890144  RH  075%=      5-min Rain = 0
KSW1 230534Z 13005KT 19/14 A30 RMK A01 T01890144  RH  075%=      5-min Rain = 0
KSW1 230535Z 13006KT 19/14 A30 RMK A01 T01890144  RH  075%=      5-min Rain = 0
KSW1 230536Z 13006KT 19/14 A30 RMK A01 T01890144  RH  075%=      5-min Rain = 0
KSW1 230537Z 13005KT 19/14 A30 RMK A01 T01890144  RH  075%=      5-min Rain = 0
KSW1 230538Z 13006KT 19/14 A30 RMK A01 T01890144  RH  075%=      5-min Rain = 0
KSW1 230539Z 13006KT 19/14 A30 RMK A01 T01890144  RH  075%=      5-min Rain = 0
KSW1 230540Z 13006KT 19/14 A30 RMK A01 T01880144  RH  075%=      5-min Rain = 0
KSW1 230541Z 13006KT 19/14 A30 RMK A01 T01880144  RH  075%=      5-min Rain = 0
KSW1 230542Z 13006KT 19/14 A30 RMK A01 T01880144  RH  076%=      5-min Rain = 0
KSW1 230543Z 13006KT 19/14 A30 RMK A01 T01880144  RH  076%=      5-min Rain = 0
KSW1 230544Z 13007KT 19/14 A30 RMK A01 T01880144  RH  076%=      5-min Rain = 0
KSW1 230545Z 13007KT 19/14 A30 RMK A01 T01880144  RH  076%=      5-min Rain = 0
KSW1 230546Z 13007KT 19/14 A30 RMK A01 T01880144  RH  076%=      5-min Rain = 0
KSW1 230547Z 13007KT 19/14 A30 RMK A01 T01880144  RH  076%=      5-min Rain = 0
KSW1 230548Z 13007KT 19/15 A30 RMK A01 T01880145  RH  076%=      5-min Rain = 0
KSW1 230549Z 13007KT 19/14 A30 RMK A01 T01870144  RH  076%=      5-min Rain = 0
KSW1 230550Z 13007KT 19/14 A30 RMK A01 T01870144  RH  076%=      5-min Rain = 0
KSW1 230551Z 14006KT 19/14 A30 RMK A01 T01870144  RH  076%=      5-min Rain = 0
KSW1 230552Z 13006KT 19/14 A30 RMK A01 T01870144  RH  076%=      5-min Rain = 0
KSW1 230553Z 13006KT 19/14 A30 RMK A01 T01870144  RH  076%=      5-min Rain = 0
KSW1 230554Z 13006KT 19/15 A30 RMK A01 T01870145  RH  076%=      5-min Rain = 0
KSW1 230555Z 13006KT 19/14 A3001 RMK A01 T01860144  RH  076%=      5-min Rain = 0
KSW1 230556Z 13006KT 19/14 A3001 RMK A01 T01860144  RH  077%=      5-min Rain = 0
KSW1 230557Z 13006KT 19/14 A3001 RMK A01 T01860144  RH  077%=      5-min Rain = 0
KSW1 230558Z 13006KT 19/14 A3001 RMK A01 T01860144  RH  077%=      5-min Rain = 0
KSW1 230559Z 13005KT 19/14 A3001 RMK A01 T01860144  RH  077%=      5-min Rain = 0
KSW1 230600Z 13006KT 19/14 A3001 RMK A01 T01860144  RH  077%=      5-min Rain = 0
KSW1 230601Z 13005KT 19/15 A3001 RMK A01 T01860145  RH  077%=      5-min Rain = 0
KSW1 230602Z 13006KT 19/14 A3001 RMK A01 T01860144  RH  077%=      5-min Rain = 0
KSW1 230603Z 13006KT 19/14 A3001 RMK A01 T01860144  RH  077%=      5-min Rain = 0
KSW1 230604Z 13006KT 19/15 A3001 RMK A01 T01860145  RH  077%=      5-min Rain = 0
KSW1 230605Z 13006KT 19/14 A3001 RMK A01 T01850144  RH  077%=      5-min Rain = 0
KSW1 230606Z 13006KT 19/15 A3001 RMK A01 T01850145  RH  077%=      5-min Rain = 0
KSW1 230607Z 13006KT 19/15 A3001 RMK A01 T01850145  RH  077%=      5-min Rain = 0
KSW1 230608Z 13006KT 19/15 A3001 RMK A01 T01850145  RH  077%=      5-min Rain = 0
KSW1 230609Z 12006KT 19/15 A3001 RMK A01 T01850145  RH  078%=      5-min Rain = 0
KSW1 230610Z 13006KT 19/15 A3001 RMK A01 T01850145  RH  078%=      5-min Rain = 0
KSW1 230611Z 12006KT 19/15 A3001 RMK A01 T01850145  RH  078%=      5-min Rain = 0
KSW1 230612Z 12006KT 18/15 A3001 RMK A01 T01840145  RH  078%=      5-min Rain = 0
KSW1 230613Z 12006KT 18/15 A3001 RMK A01 T01840145  RH  078%=      5-min Rain = 0
KSW1 230614Z 12006KT 18/15 A3001 RMK A01 T01840145  RH  078%=      5-min Rain = 0
KSW1 230615Z 12006KT 18/14 A3001 RMK A01 T01840144  RH  077%=      5-min Rain = 0
KSW1 230616Z 12005KT 18/14 A3001 RMK A01 T01840144  RH  077%=      5-min Rain = 0
KSW1 230617Z 12005KT 19/15 A3001 RMK A01 T01850145  RH  077%=      5-min Rain = 0
KSW1 230618Z 13005KT 19/15 A3001 RMK A01 T01850145  RH  078%=      5-min Rain = 0
KSW1 230619Z 13005KT 19/15 A3001 RMK A01 T01850145  RH  078%=      5-min Rain = 0
KSW1 230620Z 13006KT 18/15 A3001 RMK A01 T01840145  RH  078%=      5-min Rain = 0
KSW1 230621Z 13006KT 18/14 A3001 RMK A01 T01840144  RH  078%=      5-min Rain = 0
KSW1 230622Z 13005KT 18/14 A3001 RMK A01 T01840144  RH  078%=      5-min Rain = 0
KSW1 230623Z 13005KT 18/14 A3001 RMK A01 T01840144  RH  078%=      5-min Rain = 0
KSW1 230624Z 13005KT 18/15 A3001 RMK A01 T01840145  RH  078%=      5-min Rain = 0
KSW1 230625Z 13005KT 18/15 A3001 RMK A01 T01840145  RH  078%=      5-min Rain = 0
KSW1 230626Z 13005KT 18/15 A3001 RMK A01 T01840145  RH  078%=      5-min Rain = 0
KSW1 230627Z 13004KT 18/15 A3001 RMK A01 T01840145  RH  078%=      5-min Rain = 0
KSW1 230628Z 13005KT 18/15 A30 RMK A01 T01840145  RH  078%=      5-min Rain = 0
KSW1 230629Z 13005KT 18/15 A3001 RMK A01 T01840145  RH  078%=      5-min Rain = 0
KSW1 230630Z 13005KT 18/15 A30 RMK A01 T01840145  RH  078%=      5-min Rain = 0
KSW1 230631Z 13005KT 18/15 A30 RMK A01 T01840145  RH  078%=      5-min Rain = 0
KSW1 230632Z 13005KT 18/15 A30 RMK A01 T01830145  RH  078%=      5-min Rain = 0
KSW1 230633Z 13005KT 18/15 A30 RMK A01 T01830145  RH  078%=      5-min Rain = 0
KSW1 230634Z 13005KT 18/15 A30 RMK A01 T01830145  RH  078%=      5-min Rain = 0
KSW1 230635Z 13005KT 18/15 A30 RMK A01 T01830145  RH  078%=      5-min Rain = 0
KSW1 230636Z 13005KT 18/15 A30 RMK A01 T01830145  RH  078%=      5-min Rain = 0
KSW1 230637Z 13005KT 18/15 A30 RMK A01 T01830145  RH  079%=      5-min Rain = 0
KSW1 230638Z 13005KT 18/15 A30 RMK A01 T01830145  RH  079%=      5-min Rain = 0
KSW1 230639Z 13005KT 18/15 A30 RMK A01 T01820145  RH  079%=      5-min Rain = 0
KSW1 230640Z 13005KT 18/15 A30 RMK A01 T01820145  RH  079%=      5-min Rain = 0
KSW1 230641Z 13005KT 18/15 A30 RMK A01 T01820145  RH  079%=      5-min Rain = 0
KSW1 230642Z 13005KT 18/15 A30 RMK A01 T01820145  RH  079%=      5-min Rain = 0
KSW1 230643Z 13005KT 18/15 A30 RMK A01 T01820145  RH  079%=      5-min Rain = 0
KSW1 230644Z 12005KT 18/15 A30 RMK A01 T01810145  RH  079%=      5-min Rain = 0
KSW1 230645Z 12005KT 18/15 A30 RMK A01 T01810145  RH  079%=      5-min Rain = 0
KSW1 230646Z 12006KT 18/15 A30 RMK A01 T01810145  RH  080%=      5-min Rain = 0
KSW1 230647Z 12006KT 18/15 A30 RMK A01 T01810145  RH  080%=      5-min Rain = 0
KSW1 230648Z 12006KT 18/15 A30 RMK A01 T01810145  RH  080%=      5-min Rain = 0
KSW1 230649Z 12006KT 18/15 A30 RMK A01 T01810145  RH  080%=      5-min Rain = 0
KSW1 230650Z 13006KT 18/15 A30 RMK A01 T01800145  RH  080%=      5-min Rain = 0
KSW1 230651Z 13006KT 18/15 A30 RMK A01 T01800145  RH  080%=      5-min Rain = 0
KSW1 230652Z 13006KT 18/15 A30 RMK A01 T01800145  RH  080%=      5-min Rain = 0
KSW1 230653Z 13006KT 18/15 A30 RMK A01 T01800145  RH  080%=      5-min Rain = 0
KSW1 230654Z 13006KT 18/15 A30 RMK A01 T01800145  RH  080%=      5-min Rain = 0
KSW1 230655Z 13006KT 18/15 A30 RMK A01 T01800145  RH  080%=      5-min Rain = 0
KSW1 230656Z 13006KT 18/15 A30 RMK A01 T01800145  RH  080%=      5-min Rain = 0
KSW1 230657Z 14006KT 18/15 A30 RMK A01 T01810145  RH  079%=      5-min Rain = 0
KSW1 230658Z 13006KT 18/14 A30 RMK A01 T01810144  RH  079%=      5-min Rain = 0
KSW1 230659Z 13007KT 18/15 A2999 RMK A01 T01810145  RH  079%=      5-min Rain = 0
KSW1 230700Z 13007KT 18/14 A2999 RMK A01 T01810144  RH  079%=      5-min Rain = 0
KSW1 230701Z 13008KT 18/14 A2999 RMK A01 T01810144  RH  079%=      5-min Rain = 0
KSW1 230702Z 13007KT 18/14 A2999 RMK A01 T01810144  RH  079%=      5-min Rain = 0
KSW1 230703Z 13008KT 18/14 A2999 RMK A01 T01810144  RH  079%=      5-min Rain = 0
KSW1 230704Z 13007KT 18/14 A2999 RMK A01 T01810144  RH  079%=      5-min Rain = 0
KSW1 230705Z 13008KT 18/14 A2999 RMK A01 T01810144  RH  079%=      5-min Rain = 0
KSW1 230706Z 13008KT 18/14 A2999 RMK A01 T01810144  RH  079%=      5-min Rain = 0
KSW1 230707Z 13008KT 18/14 A2999 RMK A01 T01810144  RH  079%=      5-min Rain = 0
KSW1 230708Z 13008KT 18/15 A2999 RMK A01 T01810145  RH  079%=      5-min Rain = 0
KSW1 230709Z 13009KT 18/14 A2998 RMK A01 T01810144  RH  079%=      5-min Rain = 0
KSW1 230710Z 14009KT 18/14 A2998 RMK A01 T01810144  RH  079%=      5-min Rain = 0
KSW1 230711Z 14009KT 18/14 A2998 RMK A01 T01810144  RH  079%=      5-min Rain = 0
KSW1 230712Z 13009KT 18/14 A2998 RMK A01 T01800144  RH  079%=      5-min Rain = 0
KSW1 230713Z 14010KT 18/14 A2998 RMK A01 T01800143  RH  079%=      5-min Rain = 0
KSW1 230714Z 14009KT 18/14 A2998 RMK A01 T01800143  RH  079%=      5-min Rain = 0
KSW1 230715Z 13009KT 18/14 A2998 RMK A01 T01790143  RH  079%=      5-min Rain = 0
KSW1 230716Z 13009KT 18/14 A2998 RMK A01 T01790143  RH  079%=      5-min Rain = 0
KSW1 230717Z 14010KT 18/14 A2998 RMK A01 T01780143  RH  080%=      5-min Rain = 0
KSW1 230718Z 13010KT 18/14 A2998 RMK A01 T01780143  RH  080%=      5-min Rain = 0
KSW1 230719Z 14009KT 18/14 A2998 RMK A01 T01780142  RH  080%=      5-min Rain = 0
KSW1 230720Z 14009KT 18/14 A2998 RMK A01 T01780142  RH  080%=      5-min Rain = 0
KSW1 230721Z 14009KT 18/14 A2998 RMK A01 T01770142  RH  080%=      5-min Rain = 0
KSW1 230722Z 14009KT 18/14 A2998 RMK A01 T01760142  RH  080%=      5-min Rain = 0
KSW1 230723Z 14009KT 18/14 A2997 RMK A01 T01760141  RH  080%=      5-min Rain = 0
KSW1 230724Z 14009KT 18/14 A2997 RMK A01 T01760141  RH  080%=      5-min Rain = 0
KSW1 230725Z 14008KT 18/14 A2997 RMK A01 T01770142  RH  080%=      5-min Rain = 0
KSW1 230726Z 14009KT 18/14 A2997 RMK A01 T01760142  RH  080%=      5-min Rain = 0
KSW1 230727Z 14009KT 18/14 A2997 RMK A01 T01760142  RH  080%=      5-min Rain = 0
KSW1 230728Z 14008KT 18/14 A2997 RMK A01 T01760142  RH  080%=      5-min Rain = 0
KSW1 230729Z 14008KT 18/14 A2998 RMK A01 T01760141  RH  080%=      5-min Rain = 0
KSW1 230730Z 15008KT 18/14 A2998 RMK A01 T01750141  RH  080%=      5-min Rain = 0
KSW1 230731Z 14007KT 18/14 A2998 RMK A01 T01750141  RH  080%=      5-min Rain = 0
KSW1 230732Z 15007KT 17/14 A2998 RMK A01 T01740141  RH  081%=      5-min Rain = 0
KSW1 230733Z 15008KT 17/14 A2998 RMK A01 T01740141  RH  081%=      5-min Rain = 0
KSW1 230734Z 14008KT 17/14 A2998 RMK A01 T01740141  RH  081%=      5-min Rain = 0
KSW1 230735Z 14008KT 17/14 A2998 RMK A01 T01730141  RH  081%=      5-min Rain = 0
KSW1 230736Z 15008KT 17/14 A2998 RMK A01 T01740141  RH  081%=      5-min Rain = 0
KSW1 230737Z 15007KT 17/14 A2998 RMK A01 T01730141  RH  081%=      5-min Rain = 0
KSW1 230738Z 15007KT 17/14 A2998 RMK A01 T01720141  RH  082%=      5-min Rain = 0
KSW1 230739Z 15007KT 17/14 A2998 RMK A01 T01720141  RH  082%=      5-min Rain = 0
KSW1 230740Z 15007KT 17/14 A2998 RMK A01 T01710140  RH  082%=      5-min Rain = 0
KSW1 230741Z 15007KT 17/14 A2998 RMK A01 T01710141  RH  082%=      5-min Rain = 0
KSW1 230742Z 15007KT 17/14 A2998 RMK A01 T01710141  RH  082%=      5-min Rain = 0
KSW1 230743Z 15006KT 17/14 A2998 RMK A01 T01700141  RH  083%=      5-min Rain = 0
KSW1 230744Z 15006KT 17/14 A2998 RMK A01 T01700141  RH  083%=      5-min Rain = 0
KSW1 230745Z 15007KT 17/14 A2998 RMK A01 T01700140  RH  083%=      5-min Rain = 0
KSW1 230746Z 15007KT 17/14 A2998 RMK A01 T01700141  RH  083%=      5-min Rain = 0
KSW1 230747Z 15008KT 17/14 A2998 RMK A01 T01700141  RH  083%=      5-min Rain = 0
KSW1 230748Z 15008KT 17/14 A2998 RMK A01 T01700141  RH  083%=      5-min Rain = 0
KSW1 230749Z 15007KT 17/14 A2998 RMK A01 T01700141  RH  083%=      5-min Rain = 0
KSW1 230750Z 15006KT 17/14 A2998 RMK A01 T01700141  RH  083%=      5-min Rain = 0
KSW1 230751Z 15007KT 17/14 A2997 RMK A01 T01700141  RH  083%=      5-min Rain = 0
KSW1 230752Z 15007KT 17/14 A2997 RMK A01 T01700141  RH  083%=      5-min Rain = 0
KSW1 230753Z 15007KT 17/14 A2997 RMK A01 T01700141  RH  083%=      5-min Rain = 0
KSW1 230754Z 14007KT 17/14 A2997 RMK A01 T01700141  RH  083%=      5-min Rain = 0
KSW1 230755Z 14006KT 17/14 A2997 RMK A01 T01700141  RH  083%=      5-min Rain = 0
KSW1 230756Z 14006KT 17/14 A2997 RMK A01 T01700141  RH  083%=      5-min Rain = 0
KSW1 230757Z 14006KT 17/14 A2997 RMK A01 T01700142  RH  083%=      5-min Rain = 0
KSW1 230758Z 14007KT 17/14 A2997 RMK A01 T01700142  RH  083%=      5-min Rain = 0
KSW1 230759Z 14006KT 17/14 A2997 RMK A01 T01700142  RH  083%=      5-min Rain = 0
KSW1 230800Z 14006KT 17/14 A2997 RMK A01 T01700142  RH  083%=      5-min Rain = 0
KSW1 230801Z 14006KT 17/14 A2997 RMK A01 T01700142  RH  083%=      5-min Rain = 0
KSW1 230802Z 13006KT 17/14 A2997 RMK A01 T01700142  RH  083%=      5-min Rain = 0
KSW1 230803Z 13006KT 17/14 A2997 RMK A01 T01700142  RH  083%=      5-min Rain = 0
KSW1 230804Z 13006KT 17/14 A2997 RMK A01 T01700142  RH  083%=      5-min Rain = 0
KSW1 230805Z 13005KT 17/14 A2997 RMK A01 T01710142  RH  083%=      5-min Rain = 0
KSW1 230806Z 13006KT 17/14 A2997 RMK A01 T01710142  RH  083%=      5-min Rain = 0
KSW1 230807Z 13005KT 17/14 A2997 RMK A01 T01710142  RH  083%=      5-min Rain = 0
KSW1 230808Z 13005KT 17/14 A2997 RMK A01 T01710142  RH  083%=      5-min Rain = 0
KSW1 230809Z 13005KT 17/14 A2997 RMK A01 T01710142  RH  083%=      5-min Rain = 0
KSW1 230810Z 13005KT 17/14 A2997 RMK A01 T01710142  RH  083%=      5-min Rain = 0
KSW1 230811Z 14006KT 17/14 A2997 RMK A01 T01710142  RH  083%=      5-min Rain = 0
KSW1 230812Z 13006KT 17/14 A2997 RMK A01 T01710142  RH  083%=      5-min Rain = 0
KSW1 230813Z 14006KT 17/14 A2997 RMK A01 T01710142  RH  083%=      5-min Rain = 0
KSW1 230814Z 14006KT 17/14 A2997 RMK A01 T01710142  RH  083%=      5-min Rain = 0
KSW1 230815Z 14006KT 17/14 A2997 RMK A01 T01710142  RH  083%=      5-min Rain = 0
KSW1 230816Z 14006KT 17/14 A2997 RMK A01 T01710142  RH  083%=      5-min Rain = 0
KSW1 230817Z 14007KT 17/14 A2997 RMK A01 T01710142  RH  083%=      5-min Rain = 0
KSW1 230818Z 14006KT 17/14 A2997 RMK A01 T01710142  RH  083%=      5-min Rain = 0
KSW1 230819Z 14006KT 17/14 A2997 RMK A01 T01720143  RH  083%=      5-min Rain = 0
KSW1 230820Z 14007KT 17/14 A2997 RMK A01 T01710142  RH  083%=      5-min Rain = 0
KSW1 230821Z 15006KT 17/14 A2997 RMK A01 T01710142  RH  083%=      5-min Rain = 0
KSW1 230822Z 15007KT 17/14 A2997 RMK A01 T01720143  RH  083%=      5-min Rain = 0
KSW1 230823Z 15006KT 17/14 A2997 RMK A01 T01720142  RH  083%=      5-min Rain = 0
KSW1 230824Z 15007KT 17/14 A2997 RMK A01 T01720142  RH  083%=      5-min Rain = 0
KSW1 230825Z 15006KT 17/14 A2997 RMK A01 T01720142  RH  083%=      5-min Rain = 0
KSW1 230826Z 15006KT 17/14 A2997 RMK A01 T01720143  RH  083%=      5-min Rain = 0
KSW1 230827Z 15006KT 17/14 A2997 RMK A01 T01730143  RH  082%=      5-min Rain = 0
KSW1 230828Z 15006KT 17/14 A2997 RMK A01 T01730142  RH  082%=      5-min Rain = 0
KSW1 230829Z 15006KT 17/14 A2997 RMK A01 T01730142  RH  082%=      5-min Rain = 0
KSW1 230830Z 15005KT 17/14 A2997 RMK A01 T01730143  RH  082%=      5-min Rain = 0
KSW1 230831Z 16006KT 17/14 A2997 RMK A01 T01730143  RH  082%=      5-min Rain = 0
KSW1 230832Z 15005KT 17/14 A2997 RMK A01 T01740143  RH  082%=      5-min Rain = 0
KSW1 230833Z 16006KT 17/14 A2997 RMK A01 T01740143  RH  082%=      5-min Rain = 0
KSW1 230834Z 15006KT 17/14 A2997 RMK A01 T01740142  RH  082%=      5-min Rain = 0
KSW1 230835Z 16004KT 17/14 A2997 RMK A01 T01740143  RH  082%=      5-min Rain = 0
KSW1 230836Z 16005KT 17/14 A2997 RMK A01 T01740143  RH  082%=      5-min Rain = 0
KSW1 230837Z 15006KT 17/14 A2997 RMK A01 T01740143  RH  082%=      5-min Rain = 0
KSW1 230838Z 15005KT 17/14 A2997 RMK A01 T01740143  RH  082%=      5-min Rain = 0
KSW1 230839Z 16005KT 17/14 A2997 RMK A01 T01740143  RH  082%=      5-min Rain = 0
KSW1 230840Z 16005KT 17/14 A2997 RMK A01 T01740143  RH  082%=      5-min Rain = 0
KSW1 230841Z 15004KT 17/14 A2997 RMK A01 T01740143  RH  082%=      5-min Rain = 0
KSW1 230842Z 16004KT 17/14 A2997 RMK A01 T01740143  RH  082%=      5-min Rain = 0
KSW1 230843Z 15005KT 17/14 A2997 RMK A01 T01740143  RH  082%=      5-min Rain = 0
KSW1 230844Z 15004KT 17/14 A2997 RMK A01 T01740143  RH  082%=      5-min Rain = 0
KSW1 230845Z 15005KT 17/14 A2997 RMK A01 T01740143  RH  082%=      5-min Rain = 0
KSW1 230846Z 16005KT 17/14 A2997 RMK A01 T01740143  RH  082%=      5-min Rain = 0
KSW1 230847Z 15004KT 17/14 A2997 RMK A01 T01740143  RH  082%=      5-min Rain = 0
KSW1 230848Z 15004KT 17/14 A2997 RMK A01 T01740143  RH  082%=      5-min Rain = 0
KSW1 230849Z 15004KT 17/14 A2997 RMK A01 T01740143  RH  082%=      5-min Rain = 0
KSW1 230850Z 15004KT 17/14 A2997 RMK A01 T01740144  RH  082%=      5-min Rain = 0
KSW1 230851Z 15004KT 17/14 A2997 RMK A01 T01740144  RH  082%=      5-min Rain = 0
KSW1 230852Z 16006KT 17/14 A2997 RMK A01 T01740143  RH  082%=      5-min Rain = 0
KSW1 230853Z 15006KT 17/14 A2997 RMK A01 T01740143  RH  082%=      5-min Rain = 0
KSW1 230854Z 15005KT 17/14 A2997 RMK A01 T01740143  RH  082%=      5-min Rain = 0
KSW1 230855Z 15005KT 17/14 A2997 RMK A01 T01740143  RH  082%=      5-min Rain = 0
KSW1 230856Z 15005KT 17/14 A2997 RMK A01 T01740143  RH  082%=      5-min Rain = 0
KSW1 230857Z 14007KT 17/14 A2997 RMK A01 T01740143  RH  082%=      5-min Rain = 0
KSW1 230858Z 15006KT 17/14 A2998 RMK A01 T01740143  RH  082%=      5-min Rain = 0
KSW1 230859Z 15006KT 17/14 A2998 RMK A01 T01740143  RH  082%=      5-min Rain = 0
KSW1 230900Z 15006KT 17/14 A2998 RMK A01 T01740143  RH  082%=      5-min Rain = 0
KSW1 230901Z 15007KT 17/14 A2998 RMK A01 T01740143  RH  082%=      5-min Rain = 0
KSW1 230902Z 15008KT 17/14 A2997 RMK A01 T01740143  RH  082%=      5-min Rain = 0
KSW1 230903Z 14006KT 18/14 A2997 RMK A01 T01750143  RH  082%=      5-min Rain = 0
KSW1 230904Z 15007KT 17/14 A2997 RMK A01 T01740143  RH  082%=      5-min Rain = 0
KSW1 230905Z 14006KT 17/14 A2997 RMK A01 T01740143  RH  082%=      5-min Rain = 0
KSW1 230906Z 14007KT 18/14 A2997 RMK A01 T01750143  RH  082%=      5-min Rain = 0
KSW1 230907Z 14007KT 18/14 A2997 RMK A01 T01750143  RH  082%=      5-min Rain = 0
KSW1 230908Z 14008KT 18/14 A2997 RMK A01 T01750143  RH  082%=      5-min Rain = 0
KSW1 230909Z 14006KT 18/14 A2997 RMK A01 T01750143  RH  082%=      5-min Rain = 0
KSW1 230910Z 13007KT 18/14 A2997 RMK A01 T01750144  RH  082%=      5-min Rain = 0
KSW1 230911Z 14007KT 18/14 A2997 RMK A01 T01750144  RH  082%=      5-min Rain = 0
KSW1 230912Z 14007KT 18/14 A2997 RMK A01 T01750144  RH  082%=      5-min Rain = 0
KSW1 230913Z 14006KT 18/14 A2997 RMK A01 T01750144  RH  082%=      5-min Rain = 0
KSW1 230914Z 13006KT 18/14 A2997 RMK A01 T01750144  RH  082%=      5-min Rain = 0
KSW1 230915Z 13007KT 18/14 A2997 RMK A01 T01750144  RH  082%=      5-min Rain = 0
KSW1 230916Z 14007KT 18/14 A2997 RMK A01 T01750144  RH  082%=      5-min Rain = 0
KSW1 230917Z 14007KT 18/14 A2997 RMK A01 T01750144  RH  082%=      5-min Rain = 0
KSW1 230918Z 14007KT 18/14 A2997 RMK A01 T01750144  RH  082%=      5-min Rain = 0
KSW1 230919Z 14006KT 18/14 A2997 RMK A01 T01750144  RH  082%=      5-min Rain = 0
KSW1 230920Z 14006KT 17/14 A2997 RMK A01 T01740144  RH  082%=      5-min Rain = 0
KSW1 230921Z 14007KT 17/14 A2997 RMK A01 T01740144  RH  082%=      5-min Rain = 0
KSW1 230922Z 15007KT 17/14 A2998 RMK A01 T01740144  RH  083%=      5-min Rain = 0
KSW1 230923Z 15007KT 17/14 A2998 RMK A01 T01740144  RH  082%=      5-min Rain = 0
KSW1 230924Z 15007KT 17/14 A2998 RMK A01 T01740143  RH  082%=      5-min Rain = 0
KSW1 230925Z 15006KT 17/14 A2998 RMK A01 T01740143  RH  082%=      5-min Rain = 0
KSW1 230926Z 15006KT 17/14 A2998 RMK A01 T01740144  RH  082%=      5-min Rain = 0
KSW1 230927Z 15007KT 17/14 A2998 RMK A01 T01740144  RH  082%=      5-min Rain = 0
KSW1 230928Z 15007KT 17/14 A2998 RMK A01 T01740143  RH  082%=      5-min Rain = 0
KSW1 230929Z 15007KT 17/14 A2998 RMK A01 T01740143  RH  082%=      5-min Rain = 0
KSW1 230930Z 15006KT 17/14 A2998 RMK A01 T01740144  RH  082%=      5-min Rain = 0
KSW1 230931Z 15007KT 17/14 A2998 RMK A01 T01740144  RH  082%=      5-min Rain = 0
KSW1 230932Z 16008KT 17/14 A2998 RMK A01 T01740144  RH  082%=      5-min Rain = 0
KSW1 230933Z 15007KT 17/14 A2998 RMK A01 T01740144  RH  082%=      5-min Rain = 0
KSW1 230934Z 14008KT 17/14 A2998 RMK A01 T01740144  RH  083%=      5-min Rain = 0
KSW1 230935Z 14007KT 17/14 A2998 RMK A01 T01740144  RH  083%=      5-min Rain = 0
KSW1 230936Z 15007KT 17/14 A2998 RMK A01 T01740144  RH  083%=      5-min Rain = 0
KSW1 230937Z 14006KT 17/14 A2998 RMK A01 T01740144  RH  083%=      5-min Rain = 0
KSW1 230938Z 15006KT 17/14 A2998 RMK A01 T01730144  RH  083%=      5-min Rain = 0
KSW1 230939Z 15007KT 17/14 A2998 RMK A01 T01730144  RH  083%=      5-min Rain = 0
KSW1 230940Z 15006KT 17/14 A2998 RMK A01 T01730144  RH  083%=      5-min Rain = 0
KSW1 230941Z 15008KT 17/14 A2998 RMK A01 T01730144  RH  083%=      5-min Rain = 0
KSW1 230942Z 15007KT 17/14 A2998 RMK A01 T01730144  RH  083%=      5-min Rain = 0
KSW1 230943Z 15008KT 17/14 A2998 RMK A01 T01730144  RH  083%=      5-min Rain = 0
KSW1 230944Z 15008KT 17/15 A2998 RMK A01 T01730145  RH  083%=      5-min Rain = 0
KSW1 230945Z 15009KT 17/14 A2998 RMK A01 T01720144  RH  083%=      5-min Rain = 0
KSW1 230946Z 15009KT 17/14 A2998 RMK A01 T01720144  RH  083%=      5-min Rain = 0
KSW1 230947Z 14008KT 17/14 A2998 RMK A01 T01720144  RH  084%=      5-min Rain = 0
KSW1 230948Z 15007KT 17/15 A2998 RMK A01 T01720145  RH  084%=      5-min Rain = 0
KSW1 230949Z 15007KT 17/15 A2998 RMK A01 T01720145  RH  084%=      5-min Rain = 0
KSW1 230950Z 15008KT 17/15 A2998 RMK A01 T01720145  RH  084%=      5-min Rain = 0
KSW1 230951Z 15008KT 17/15 A2998 RMK A01 T01720145  RH  084%=      5-min Rain = 0
KSW1 230952Z 15008KT 17/15 A2998 RMK A01 T01720145  RH  084%=      5-min Rain = 0
KSW1 230953Z 15009KT 17/15 A2998 RMK A01 T01720145  RH  084%=      5-min Rain = 0
KSW1 230954Z 15008KT 17/15 A2998 RMK A01 T01720145  RH  084%=      5-min Rain = 0
KSW1 230955Z 15008KT 17/15 A2998 RMK A01 T01720145  RH  084%=      5-min Rain = 0
KSW1 230956Z 15008KT 17/15 A2998 RMK A01 T01720145  RH  084%=      5-min Rain = 0
KSW1 230957Z 15007KT 17/15 A2999 RMK A01 T01720145  RH  084%=      5-min Rain = 0
KSW1 230958Z 15009KT 17/15 A2999 RMK A01 T01720145  RH  084%=      5-min Rain = 0
KSW1 230959Z 15010KT 17/15 A2999 RMK A01 T01720145  RH  084%=      5-min Rain = 0
KSW1 231000Z 15007KT 17/15 A2999 RMK A01 T01720145  RH  084%=      5-min Rain = 0
KSW1 231001Z 15008KT 17/15 A2999 RMK A01 T01720146  RH  084%=      5-min Rain = 0
KSW1 231002Z 16008KT 17/15 A2999 RMK A01 T01720145  RH  084%=      5-min Rain = 0
KSW1 231003Z 15006KT 17/15 A2999 RMK A01 T01720146  RH  085%=      5-min Rain = 0
KSW1 231004Z 15006KT 17/15 A2999 RMK A01 T01720146  RH  085%=      5-min Rain = 0
KSW1 231005Z 15007KT 17/15 A2999 RMK A01 T01720146  RH  085%=      5-min Rain = 0
KSW1 231006Z 15007KT 17/15 A2999 RMK A01 T01720146  RH  085%=      5-min Rain = 0
KSW1 231007Z 15007KT 17/15 A2999 RMK A01 T01710146  RH  085%=      5-min Rain = 0
KSW1 231008Z 15007KT 17/15 A2999 RMK A01 T01710146  RH  085%=      5-min Rain = 0
KSW1 231009Z 15007KT 17/15 A2999 RMK A01 T01720146  RH  085%=      5-min Rain = 0
KSW1 231010Z 15007KT 17/15 A2999 RMK A01 T01710146  RH  085%=      5-min Rain = 0
KSW1 231011Z 15008KT 17/15 A2999 RMK A01 T01710146  RH  085%=      5-min Rain = 0
KSW1 231012Z 15008KT 17/15 A2999 RMK A01 T01710146  RH  085%=      5-min Rain = 0
KSW1 231013Z 15009KT 17/15 A2999 RMK A01 T01720146  RH  085%=      5-min Rain = 0
KSW1 231014Z 15008KT 17/15 A2999 RMK A01 T01720147  RH  085%=      5-min Rain = 0
KSW1 231015Z 15008KT 17/15 A2999 RMK A01 T01710146  RH  085%=      5-min Rain = 0
KSW1 231016Z 15009KT 17/15 A2999 RMK A01 T01710146  RH  085%=      5-min Rain = 0
KSW1 231017Z 15009KT 17/15 A2999 RMK A01 T01710146  RH  085%=      5-min Rain = 0
KSW1 231018Z 14009KT 17/15 A2999 RMK A01 T01710146  RH  085%=      5-min Rain = 0
KSW1 231019Z 15010KT 17/15 A2999 RMK A01 T01710147  RH  085%=      5-min Rain = 0
KSW1 231020Z 14010KT 17/15 A2999 RMK A01 T01720147  RH  085%=      5-min Rain = 0
KSW1 231021Z 15008KT 17/15 A2999 RMK A01 T01710147  RH  085%=      5-min Rain = 0
KSW1 231022Z 14008KT 17/15 A2999 RMK A01 T01720147  RH  085%=      5-min Rain = 0
KSW1 231023Z 14007KT 17/15 A2999 RMK A01 T01710147  RH  085%=      5-min Rain = 0
KSW1 231024Z 15007KT 17/15 A2999 RMK A01 T01710147  RH  086%=      5-min Rain = 0
KSW1 231025Z 14008KT 17/15 A2999 RMK A01 T01710147  RH  086%=      5-min Rain = 0
KSW1 231026Z 14008KT 17/15 A2999 RMK A01 T01710147  RH  086%=      5-min Rain = 0
KSW1 231027Z 14008KT 17/15 A2999 RMK A01 T01710147  RH  086%=      5-min Rain = 0
KSW1 231028Z 14009KT 17/15 A2999 RMK A01 T01710147  RH  086%=      5-min Rain = 0
KSW1 231029Z 15008KT 17/15 A2999 RMK A01 T01710147  RH  086%=      5-min Rain = 0
KSW1 231030Z 15009KT 17/15 A2999 RMK A01 T01710147  RH  086%=      5-min Rain = 0
KSW1 231031Z 15008KT 17/15 A2999 RMK A01 T01710147  RH  086%=      5-min Rain = 0
KSW1 231032Z 15011KT 17/15 A2999 RMK A01 T01710147  RH  086%=      5-min Rain = 0
KSW1 231033Z 14009KT 17/15 A2999 RMK A01 T01710147  RH  086%=      5-min Rain = 0
KSW1 231034Z 14009KT 17/15 A2999 RMK A01 T01710147  RH  086%=      5-min Rain = 0
KSW1 231035Z 15009KT 17/15 A2999 RMK A01 T01700147  RH  086%=      5-min Rain = 0
KSW1 231036Z 15008KT 17/15 A2999 RMK A01 T01700147  RH  086%=      5-min Rain = 0
KSW1 231037Z 15008KT 17/15 A2999 RMK A01 T01700147  RH  086%=      5-min Rain = 0
KSW1 231038Z 14008KT 17/15 A2999 RMK A01 T01700147  RH  086%=      5-min Rain = 0
KSW1 231039Z 15008KT 17/15 A2999 RMK A01 T01700147  RH  087%=      5-min Rain = 0
KSW1 231040Z 14008KT 17/15 A2999 RMK A01 T01700147  RH  087%=      5-min Rain = 0
KSW1 231041Z 15008KT 17/15 A2999 RMK A01 T01690147  RH  087%=      5-min Rain = 0
KSW1 231042Z 15009KT 17/15 A2999 RMK A01 T01700147  RH  087%=      5-min Rain = 0
KSW1 231043Z 14008KT 17/15 A2999 RMK A01 T01700147  RH  087%=      5-min Rain = 0
KSW1 231044Z 14009KT 17/15 A2999 RMK A01 T01700147  RH  087%=      5-min Rain = 0
KSW1 231045Z 14008KT 17/15 A2999 RMK A01 T01700147  RH  087%=      5-min Rain = 0
KSW1 231046Z 15008KT 17/15 A2999 RMK A01 T01700147  RH  087%=      5-min Rain = 0
KSW1 231047Z 14008KT 17/15 A2999 RMK A01 T01700147  RH  087%=      5-min Rain = 0
KSW1 231048Z 15008KT 17/15 A2999 RMK A01 T01700148  RH  087%=      5-min Rain = 0
KSW1 231049Z 15007KT 17/15 A2999 RMK A01 T01700148  RH  087%=      5-min Rain = 0
KSW1 231050Z 14009KT 17/15 A2999 RMK A01 T01700148  RH  087%=      5-min Rain = 0
KSW1 231051Z 15008KT 17/15 A2999 RMK A01 T01690147  RH  087%=      5-min Rain = 0
KSW1 231052Z 15008KT 17/15 A2999 RMK A01 T01690147  RH  087%=      5-min Rain = 0
KSW1 231053Z 15009KT 17/15 A2999 RMK A01 T01690147  RH  087%=      5-min Rain = 0
KSW1 231054Z 15009KT 17/15 A2999 RMK A01 T01690148  RH  087%=      5-min Rain = 0
KSW1 231055Z 15008KT 17/15 A2999 RMK A01 T01690147  RH  087%=      5-min Rain = 0
KSW1 231056Z 15008KT 17/15 A2999 RMK A01 T01690147  RH  087%=      5-min Rain = 0
KSW1 231057Z 15009KT 17/15 A2999 RMK A01 T01690147  RH  087%=      5-min Rain = 0
KSW1 231058Z 14009KT 17/15 A2999 RMK A01 T01690147  RH  087%=      5-min Rain = 0
KSW1 231059Z 15008KT 17/15 A2999 RMK A01 T01690147  RH  087%=      5-min Rain = 0
KSW1 231100Z 15008KT 17/15 A2999 RMK A01 T01690147  RH  087%=      5-min Rain = 0
KSW1 231101Z 15006KT 17/15 A2999 RMK A01 T01690147  RH  087%=      5-min Rain = 0
KSW1 231102Z 14007KT 17/15 A2999 RMK A01 T01690147  RH  087%=      5-min Rain = 0
KSW1 231103Z 14006KT 17/15 A2999 RMK A01 T01690147  RH  087%=      5-min Rain = 0
KSW1 231104Z 15007KT 17/15 A2999 RMK A01 T01690147  RH  087%=      5-min Rain = 0
KSW1 231105Z 14006KT 17/15 A2999 RMK A01 T01690148  RH  087%=      5-min Rain = 0
KSW1 231106Z 15006KT 17/15 A2999 RMK A01 T01690148  RH  087%=      5-min Rain = 0
KSW1 231107Z 15007KT 17/15 A2999 RMK A01 T01690148  RH  087%=      5-min Rain = 0
KSW1 231108Z 15006KT 17/15 A2999 RMK A01 T01690148  RH  087%=      5-min Rain = 0
KSW1 231109Z 15007KT 17/15 A2999 RMK A01 T01690148  RH  087%=      5-min Rain = 0
KSW1 231110Z 15007KT 17/15 A2999 RMK A01 T01690148  RH  087%=      5-min Rain = 0
KSW1 231111Z 15006KT 17/15 A2999 RMK A01 T01690148  RH  087%=      5-min Rain = 0
KSW1 231112Z 15008KT 17/15 A2999 RMK A01 T01700148  RH  087%=      5-min Rain = 0
KSW1 231113Z 15007KT 17/15 A2999 RMK A01 T01690147  RH  087%=      5-min Rain = 0
KSW1 231114Z 14006KT 17/15 A2999 RMK A01 T01690148  RH  087%=      5-min Rain = 0
KSW1 231115Z 15007KT 17/15 A2999 RMK A01 T01690147  RH  087%=      5-min Rain = 0
KSW1 231116Z 15007KT 17/15 A2999 RMK A01 T01690148  RH  087%=      5-min Rain = 0
KSW1 231117Z 14007KT 17/15 A2999 RMK A01 T01690148  RH  087%=      5-min Rain = 0
KSW1 231118Z 15009KT 17/15 A2999 RMK A01 T01690147  RH  087%=      5-min Rain = 0
KSW1 231119Z 15007KT 17/15 A2999 RMK A01 T01690147  RH  087%=      5-min Rain = 0
KSW1 231120Z 14008KT 17/15 A2999 RMK A01 T01690147  RH  087%=      5-min Rain = 0
KSW1 231121Z 14008KT 17/15 A2999 RMK A01 T01700147  RH  087%=      5-min Rain = 0
KSW1 231122Z 14007KT 17/15 A2999 RMK A01 T01700147  RH  087%=      5-min Rain = 0
KSW1 231123Z 14008KT 17/15 A2999 RMK A01 T01700147  RH  087%=      5-min Rain = 0
KSW1 231124Z 15007KT 17/15 A2999 RMK A01 T01700148  RH  087%=      5-min Rain = 0
KSW1 231125Z 15006KT 17/15 A2999 RMK A01 T01700148  RH  087%=      5-min Rain = 0
KSW1 231126Z 15006KT 17/15 A2999 RMK A01 T01700148  RH  087%=      5-min Rain = 0
KSW1 231127Z 15007KT 17/15 A2999 RMK A01 T01700148  RH  087%=      5-min Rain = 0
KSW1 231128Z 14008KT 17/15 A2999 RMK A01 T01700148  RH  087%=      5-min Rain = 0
KSW1 231129Z 15006KT 17/15 A2999 RMK A01 T01700148  RH  087%=      5-min Rain = 0
KSW1 231130Z 15008KT 17/15 A2999 RMK A01 T01700148  RH  087%=      5-min Rain = 0
KSW1 231131Z 15007KT 17/15 A30 RMK A01 T01700148  RH  087%=      5-min Rain = 0
KSW1 231132Z 15008KT 17/15 A30 RMK A01 T01700148  RH  087%=      5-min Rain = 0
KSW1 231133Z 15007KT 17/15 A30 RMK A01 T01700148  RH  087%=      5-min Rain = 0
KSW1 231134Z 15007KT 17/15 A30 RMK A01 T01700148  RH  087%=      5-min Rain = 0
KSW1 231135Z 15009KT 17/15 A2999 RMK A01 T01700148  RH  087%=      5-min Rain = 0
KSW1 231136Z 14008KT 17/15 A2999 RMK A01 T01700148  RH  087%=      5-min Rain = 0
KSW1 231137Z 15009KT 17/15 A2999 RMK A01 T01690148  RH  087%=      5-min Rain = 0
KSW1 231138Z 15009KT 17/15 A30 RMK A01 T01700148  RH  087%=      5-min Rain = 0
KSW1 231139Z 15008KT 17/15 A30 RMK A01 T01700148  RH  087%=      5-min Rain = 0
KSW1 231140Z 15010KT 17/15 A30 RMK A01 T01690148  RH  087%=      5-min Rain = 0
KSW1 231141Z 15010KT 17/15 A30 RMK A01 T01700148  RH  087%=      5-min Rain = 0
KSW1 231142Z 15009KT 17/15 A30 RMK A01 T01700148  RH  087%=      5-min Rain = 0
KSW1 231143Z 15008KT 17/15 A30 RMK A01 T01700148  RH  087%=      5-min Rain = 0
KSW1 231144Z 15008KT 17/15 A30 RMK A01 T01700148  RH  087%=      5-min Rain = 0
KSW1 231145Z 15007KT 17/15 A30 RMK A01 T01690148  RH  087%=      5-min Rain = 0
KSW1 231146Z 15008KT 17/15 A30 RMK A01 T01700149  RH  087%=      5-min Rain = 0
KSW1 231147Z 15007KT 17/15 A30 RMK A01 T01700149  RH  087%=      5-min Rain = 0
KSW1 231148Z 15008KT 17/15 A30 RMK A01 T01690149  RH  088%=      5-min Rain = 0
KSW1 231149Z 15009KT 17/15 A30 RMK A01 T01700149  RH  088%=      5-min Rain = 0
KSW1 231150Z 15008KT 17/15 A30 RMK A01 T01690149  RH  088%=      5-min Rain = 0
KSW1 231151Z 15008KT 17/15 A30 RMK A01 T01690149  RH  088%=      5-min Rain = 0
KSW1 231152Z 15009KT 17/15 A30 RMK A01 T01690149  RH  088%=      5-min Rain = 0
KSW1 231153Z 15009KT 17/15 A30 RMK A01 T01690149  RH  088%=      5-min Rain = 0
KSW1 231154Z 15011KT 17/15 A30 RMK A01 T01690149  RH  088%=      5-min Rain = 0
KSW1 231155Z 16009KT 17/15 A30 RMK A01 T01690149  RH  088%=      5-min Rain = 0
KSW1 231156Z 15008KT 17/15 A30 RMK A01 T01690149  RH  088%=      5-min Rain = 0
KSW1 231157Z 15010KT 17/15 A30 RMK A01 T01690149  RH  088%=      5-min Rain = 0
KSW1 231158Z 15010KT 17/15 A30 RMK A01 T01690149  RH  088%=      5-min Rain = 0
KSW1 231159Z 15009KT 17/15 A30 RMK A01 T01690149  RH  088%=      5-min Rain = 0
KSW1 231200Z 14008KT 17/15 A30 RMK A01 T01680149  RH  088%=      5-min Rain = 0
KSW1 231201Z 14009KT 17/15 A30 RMK A01 T01680149  RH  088%=      5-min Rain = 0
KSW1 231202Z 14009KT 17/15 A30 RMK A01 T01680149  RH  088%=      5-min Rain = 0
KSW1 231203Z 14007KT 17/15 A30 RMK A01 T01680149  RH  089%=      5-min Rain = 0
KSW1 231204Z 14007KT 17/15 A30 RMK A01 T01680149  RH  089%=      5-min Rain = 0
KSW1 231205Z 14007KT 17/15 A30 RMK A01 T01680149  RH  089%=      5-min Rain = 0
KSW1 231206Z 14007KT 17/15 A30 RMK A01 T01680149  RH  089%=      5-min Rain = 0
KSW1 231207Z 15008KT 17/15 A30 RMK A01 T01680149  RH  089%=      5-min Rain = 0
KSW1 231208Z 14008KT 17/15 A30 RMK A01 T01670149  RH  089%=      5-min Rain = 0
KSW1 231209Z 14009KT 17/15 A30 RMK A01 T01670149  RH  089%=      5-min Rain = 0
KSW1 231210Z 14008KT 17/15 A30 RMK A01 T01670149  RH  089%=      5-min Rain = 0
KSW1 231211Z 14008KT 17/15 A30 RMK A01 T01670149  RH  089%=      5-min Rain = 0
KSW1 231212Z 14010KT 17/15 A30 RMK A01 T01670149  RH  089%=      5-min Rain = 0
KSW1 231213Z 14009KT 17/15 A30 RMK A01 T01670149  RH  089%=      5-min Rain = 0
KSW1 231214Z 15008KT 17/15 A30 RMK A01 T01660149  RH  089%=      5-min Rain = 0
KSW1 231215Z 14009KT 17/15 A30 RMK A01 T01660149  RH  090%=      5-min Rain = 0
KSW1 231216Z 14009KT 17/15 A30 RMK A01 T01660149  RH  090%=      5-min Rain = 0
KSW1 231217Z 14009KT 17/15 A30 RMK A01 T01660149  RH  090%=      5-min Rain = 0
KSW1 231218Z 15009KT 17/15 A30 RMK A01 T01660149  RH  090%=      5-min Rain = 0
KSW1 231219Z 14008KT 17/15 A30 RMK A01 T01660149  RH  090%=      5-min Rain = 0
KSW1 231220Z 14007KT 17/15 A30 RMK A01 T01660149  RH  090%=      5-min Rain = 0
KSW1 231221Z 14009KT 17/15 A30 RMK A01 T01660149  RH  090%=      5-min Rain = 0
KSW1 231222Z 14007KT 17/15 A30 RMK A01 T01660149  RH  090%=      5-min Rain = 0
KSW1 231223Z 14007KT 17/15 A30 RMK A01 T01660149  RH  090%=      5-min Rain = 0
KSW1 231224Z 14006KT 17/15 A30 RMK A01 T01650149  RH  090%=      5-min Rain = 0
KSW1 231225Z 14009KT 17/15 A30 RMK A01 T01660150  RH  090%=      5-min Rain = 0
KSW1 231226Z 14007KT 17/15 A30 RMK A01 T01660149  RH  090%=      5-min Rain = 0
KSW1 231227Z 14008KT 17/15 A30 RMK A01 T01650149  RH  090%=      5-min Rain = 0
KSW1 231228Z 14007KT 17/15 A30 RMK A01 T01650149  RH  090%=      5-min Rain = 0
KSW1 231229Z 14009KT 17/15 A30 RMK A01 T01650149  RH  090%=      5-min Rain = 0
KSW1 231230Z 15009KT 17/15 A30 RMK A01 T01650149  RH  090%=      5-min Rain = 0
KSW1 231231Z 15008KT 17/15 A30 RMK A01 T01660149  RH  090%=      5-min Rain = 0
KSW1 231232Z 14008KT 17/15 A30 RMK A01 T01650149  RH  090%=      5-min Rain = 0
KSW1 231233Z 15006KT 17/15 A30 RMK A01 T01650149  RH  090%=      5-min Rain = 0
KSW1 231234Z 15007KT 17/15 A30 RMK A01 T01660150  RH  090%=      5-min Rain = 0
KSW1 231235Z 15008KT 17/15 A30 RMK A01 T01650149  RH  090%=      5-min Rain = 0
KSW1 231236Z 15006KT 17/15 A30 RMK A01 T01650149  RH  090%=      5-min Rain = 0
KSW1 231237Z 15009KT 17/15 A30 RMK A01 T01650149  RH  090%=      5-min Rain = 0
KSW1 231238Z 15007KT 17/15 A30 RMK A01 T01660150  RH  090%=      5-min Rain = 0
KSW1 231239Z 15008KT 17/15 A3001 RMK A01 T01660150  RH  090%=      5-min Rain = 0
KSW1 231240Z 15008KT 17/15 A3001 RMK A01 T01660150  RH  090%=      5-min Rain = 0
KSW1 231241Z 15007KT 17/15 A3001 RMK A01 T01660150  RH  090%=      5-min Rain = 0
KSW1 231242Z 15007KT 17/15 A3001 RMK A01 T01660150  RH  090%=      5-min Rain = 0
KSW1 231243Z 15006KT 17/15 A3001 RMK A01 T01660150  RH  091%=      5-min Rain = 0
KSW1 231244Z 15007KT 17/15 A3001 RMK A01 T01660150  RH  091%=      5-min Rain = 0
KSW1 231245Z 15006KT 17/15 A3001 RMK A01 T01660151  RH  091%=      5-min Rain = 0
KSW1 231246Z 15006KT 17/15 A3001 RMK A01 T01660151  RH  091%=      5-min Rain = 0
KSW1 231247Z 15007KT 17/15 A3001 RMK A01 T01660151  RH  091%=      5-min Rain = 0
KSW1 231248Z 15009KT 17/15 A3001 RMK A01 T01660151  RH  091%=      5-min Rain = 0
KSW1 231249Z 15009KT 17/15 A3001 RMK A01 T01660151  RH  091%=      5-min Rain = 0
KSW1 231250Z 15009KT 17/15 A3001 RMK A01 T01660151  RH  091%=      5-min Rain = 0
KSW1 231251Z 15008KT 17/15 A3001 RMK A01 T01660151  RH  091%=      5-min Rain = 0
KSW1 231252Z 15009KT 17/15 A3001 RMK A01 T01660151  RH  091%=      5-min Rain = 0
KSW1 231253Z 15008KT 17/15 A3001 RMK A01 T01660151  RH  091%=      5-min Rain = 0
KSW1 231254Z 15007KT 17/15 A3002 RMK A01 T01660151  RH  091%=      5-min Rain = 0
KSW1 231255Z 14007KT 17/15 A3002 RMK A01 T01660152  RH  091%=      5-min Rain = 0
KSW1 231256Z 14006KT 17/15 A3002 RMK A01 T01660151  RH  091%=      5-min Rain = 0
KSW1 231257Z 14006KT 17/15 A3002 RMK A01 T01660152  RH  091%=      5-min Rain = 0
KSW1 231258Z 14006KT 17/15 A3002 RMK A01 T01670152  RH  091%=      5-min Rain = 0
KSW1 231259Z 14007KT 17/15 A3001 RMK A01 T01670152  RH  091%=      5-min Rain = 0
KSW1 231300Z 14007KT 17/15 A3001 RMK A01 T01670152  RH  091%=      5-min Rain = 0
KSW1 231301Z 15006KT 17/15 A3001 RMK A01 T01660152  RH  091%=      5-min Rain = 0
KSW1 231302Z 15006KT 17/15 A3001 RMK A01 T01670152  RH  091%=      5-min Rain = 0
KSW1 231303Z 14008KT 17/15 A3001 RMK A01 T01670153  RH  091%=      5-min Rain = 0
KSW1 231304Z 14008KT 17/15 A3001 RMK A01 T01670152  RH  091%=      5-min Rain = 0
KSW1 231305Z 14007KT 17/15 A3001 RMK A01 T01670152  RH  091%=      5-min Rain = 0
KSW1 231306Z 15008KT 17/15 A3001 RMK A01 T01670152  RH  091%=      5-min Rain = 0
KSW1 231307Z 15007KT 17/15 A3001 RMK A01 T01670152  RH  091%=      5-min Rain = 0
KSW1 231308Z 14007KT 17/15 A3002 RMK A01 T01670152  RH  091%=      5-min Rain = 0
KSW1 231309Z 15005KT 17/15 A3002 RMK A01 T01670153  RH  091%=      5-min Rain = 0
KSW1 231310Z 15005KT 17/15 A3002 RMK A01 T01670153  RH  091%=      5-min Rain = 0
KSW1 231311Z 16004KT 17/15 A3002 RMK A01 T01670153  RH  091%=      5-min Rain = 0
KSW1 231312Z 16005KT 17/15 A3002 RMK A01 T01680154  RH  091%=      5-min Rain = 0
KSW1 231313Z 16005KT 17/15 A3002 RMK A01 T01680153  RH  091%=      5-min Rain = 0
KSW1 231314Z 16007KT 17/15 A3002 RMK A01 T01680154  RH  091%=      5-min Rain = 0
KSW1 231315Z 15005KT 17/15 A3002 RMK A01 T01680154  RH  091%=      5-min Rain = 0
KSW1 231316Z 15007KT 17/15 A3002 RMK A01 T01680154  RH  091%=      5-min Rain = 0
KSW1 231317Z 15007KT 17/15 A3002 RMK A01 T01680154  RH  091%=      5-min Rain = 0
KSW1 231318Z 15007KT 17/15 A3002 RMK A01 T01680154  RH  091%=      5-min Rain = 0
KSW1 231319Z 15009KT 17/15 A3002 RMK A01 T01680154  RH  091%=      5-min Rain = 0
KSW1 231320Z 16008KT 17/15 A3002 RMK A01 T01680154  RH  091%=      5-min Rain = 0
KSW1 231321Z 16007KT 17/15 A3002 RMK A01 T01680154  RH  091%=      5-min Rain = 0
KSW1 231322Z 16006KT 17/15 A3002 RMK A01 T01680154  RH  091%=      5-min Rain = 0
KSW1 231323Z 16008KT 17/16 A3002 RMK A01 T01690155  RH  092%=      5-min Rain = 0
KSW1 231324Z 16008KT 17/16 A3003 RMK A01 T01690155  RH  091%=      5-min Rain = 0
KSW1 231325Z 17009KT 17/15 A3003 RMK A01 T01690154  RH  091%=      5-min Rain = 0
KSW1 231326Z 16008KT 17/16 A3003 RMK A01 T01690155  RH  091%=      5-min Rain = 0
KSW1 231327Z 15007KT 17/16 A3002 RMK A01 T01690155  RH  092%=      5-min Rain = 0
KSW1 231328Z 15010KT 17/16 A3002 RMK A01 T01690155  RH  091%=      5-min Rain = 0
KSW1 231329Z 16008KT 17/16 A3002 RMK A01 T01690155  RH  091%=      5-min Rain = 0
KSW1 231330Z 16007KT 17/16 A3002 RMK A01 T01690155  RH  091%=      5-min Rain = 0
KSW1 231331Z 16006KT 17/16 A3002 RMK A01 T01690156  RH  092%=      5-min Rain = 0
KSW1 231332Z 16008KT 17/16 A3002 RMK A01 T01700156  RH  092%=      5-min Rain = 0
KSW1 231333Z 15008KT 17/16 A3002 RMK A01 T01700155  RH  091%=      5-min Rain = 0
KSW1 231334Z 16009KT 17/16 A3002 RMK A01 T01700155  RH  091%=      5-min Rain = 0
KSW1 231335Z 15009KT 17/16 A3002 RMK A01 T01700155  RH  091%=      5-min Rain = 0
KSW1 231336Z 15008KT 17/16 A3002 RMK A01 T01700156  RH  091%=      5-min Rain = 0
KSW1 231337Z 16010KT 17/16 A3002 RMK A01 T01700155  RH  091%=      5-min Rain = 0
KSW1 231338Z 16009KT 17/16 A3002 RMK A01 T01700156  RH  091%=      5-min Rain = 0
KSW1 231339Z 15007KT 17/16 A3002 RMK A01 T01700156  RH  091%=      5-min Rain = 0
KSW1 231340Z 14008KT 17/16 A3002 RMK A01 T01710157  RH  091%=      5-min Rain = 0
KSW1 231341Z 14007KT 17/16 A3002 RMK A01 T01720156  RH  090%=      5-min Rain = 0
KSW1 231342Z 15006KT 17/16 A3002 RMK A01 T01730157  RH  091%=      5-min Rain = 0
KSW1 231343Z 16008KT 17/16 A3002 RMK A01 T01740157  RH  090%=      5-min Rain = 0
KSW1 231344Z 15007KT 17/16 A3002 RMK A01 T01740157  RH  090%=      5-min Rain = 0
KSW1 231345Z 15007KT 18/16 A3002 RMK A01 T01750158  RH  090%=      5-min Rain = 0
KSW1 231346Z 14008KT 18/16 A3002 RMK A01 T01760157  RH  089%=      5-min Rain = 0
KSW1 231347Z 16006KT 18/16 A3002 RMK A01 T01760158  RH  089%=      5-min Rain = 0
KSW1 231348Z 15006KT 18/16 A3002 RMK A01 T01760159  RH  090%=      5-min Rain = 0
KSW1 231349Z 16007KT 18/16 A3002 RMK A01 T01770158  RH  088%=      5-min Rain = 0
KSW1 231350Z 15007KT 18/16 A3003 RMK A01 T01780158  RH  088%=      5-min Rain = 0
KSW1 231351Z 15008KT 18/16 A3003 RMK A01 T01780158  RH  088%=      5-min Rain = 0
KSW1 231352Z 16007KT 18/16 A3003 RMK A01 T01780158  RH  088%=      5-min Rain = 0
KSW1 231353Z 14007KT 18/16 A3003 RMK A01 T01780158  RH  088%=      5-min Rain = 0
KSW1 231354Z 15006KT 18/16 A3003 RMK A01 T01780159  RH  088%=      5-min Rain = 0
KSW1 231355Z 16007KT 18/16 A3003 RMK A01 T01780158  RH  088%=      5-min Rain = 0
KSW1 231356Z 16006KT 18/16 A3003 RMK A01 T01770157  RH  088%=      5-min Rain = 0
KSW1 231357Z 16005KT 18/16 A3003 RMK A01 T01770158  RH  089%=      5-min Rain = 0
KSW1 231358Z 16006KT 18/16 A3003 RMK A01 T01770158  RH  089%=      5-min Rain = 0
KSW1 231359Z 15007KT 18/16 A3003 RMK A01 T01760157  RH  089%=      5-min Rain = 0
KSW1 231400Z 16008KT 18/16 A3003 RMK A01 T01760157  RH  089%=      5-min Rain = 0
KSW1 231401Z 16008KT 18/16 A3003 RMK A01 T01750157  RH  089%=      5-min Rain = 0
KSW1 231402Z 16008KT 18/16 A3003 RMK A01 T01750157  RH  089%=      5-min Rain = 0
KSW1 231403Z 16007KT 17/16 A3003 RMK A01 T01740157  RH  089%=      5-min Rain = 0
KSW1 231404Z 15007KT 17/16 A3003 RMK A01 T01740157  RH  090%=      5-min Rain = 0
KSW1 231405Z 16006KT 17/16 A3003 RMK A01 T01740156  RH  090%=      5-min Rain = 0
KSW1 231406Z 16005KT 17/16 A3003 RMK A01 T01740157  RH  090%=      5-min Rain = 0
KSW1 231407Z 15006KT 17/16 A3003 RMK A01 T01740158  RH  090%=      5-min Rain = 0
KSW1 231408Z 14005KT 18/16 A3003 RMK A01 T01750157  RH  089%=      5-min Rain = 0
KSW1 231409Z 15005KT 18/16 A3003 RMK A01 T01750157  RH  090%=      5-min Rain = 0
KSW1 231410Z 17007KT 18/16 A3003 RMK A01 T01750157  RH  090%=      5-min Rain = 0
KSW1 231411Z 16006KT 18/16 A3003 RMK A01 T01750157  RH  089%=      5-min Rain = 0
KSW1 231412Z 16005KT 18/16 A3003 RMK A01 T01750156  RH  089%=      5-min Rain = 0
KSW1 231413Z 17007KT 18/16 A3003 RMK A01 T01760158  RH  089%=      5-min Rain = 0
KSW1 231414Z 16006KT 18/16 A3003 RMK A01 T01750157  RH  089%=      5-min Rain = 0
KSW1 231415Z 16005KT 18/16 A3003 RMK A01 T01760157  RH  089%=      5-min Rain = 0
KSW1 231416Z 15004KT 18/16 A3003 RMK A01 T01760157  RH  089%=      5-min Rain = 0
KSW1 231417Z 16004KT 18/16 A3003 RMK A01 T01770159  RH  089%=      5-min Rain = 0
KSW1 231418Z 17004KT 18/16 A3003 RMK A01 T01780158  RH  088%=      5-min Rain = 0
KSW1 231419Z 18004KT 18/16 A3003 RMK A01 T01780157  RH  087%=      5-min Rain = 0
KSW1 231420Z 15004KT 18/16 A3003 RMK A01 T01780157  RH  088%=      5-min Rain = 0
KSW1 231421Z 16004KT 18/16 A3003 RMK A01 T01780158  RH  088%=      5-min Rain = 0
KSW1 231422Z 17003KT 18/16 A3003 RMK A01 T01790159  RH  088%=      5-min Rain = 0
KSW1 231423Z 15005KT 18/16 A3003 RMK A01 T01790158  RH  087%=      5-min Rain = 0
KSW1 231424Z 16004KT 18/16 A3002 RMK A01 T01800157  RH  087%=      5-min Rain = 0
KSW1 231425Z 17005KT 18/16 A3002 RMK A01 T01800158  RH  087%=      5-min Rain = 0
KSW1 231426Z 16005KT 18/16 A3002 RMK A01 T01800157  RH  087%=      5-min Rain = 0
KSW1 231427Z 17004KT 18/16 A3002 RMK A01 T01800158  RH  087%=      5-min Rain = 0
KSW1 231428Z 16003KT 18/16 A3002 RMK A01 T01800158  RH  087%=      5-min Rain = 0
KSW1 231429Z 14005KT 18/16 A3002 RMK A01 T01800160  RH  088%=      5-min Rain = 0
KSW1 231430Z 15005KT 18/16 A3002 RMK A01 T01820160  RH  087%=      5-min Rain = 0
KSW1 231431Z 15005KT 18/16 A3002 RMK A01 T01820159  RH  086%=      5-min Rain = 0
KSW1 231432Z 15004KT 18/16 A3002 RMK A01 T01820159  RH  086%=      5-min Rain = 0
KSW1 231433Z 15004KT 18/16 A3002 RMK A01 T01820158  RH  086%=      5-min Rain = 0
KSW1 231434Z 15005KT 18/16 A3002 RMK A01 T01830160  RH  086%=      5-min Rain = 0
KSW1 231435Z 15004KT 18/16 A3003 RMK A01 T01840159  RH  085%=      5-min Rain = 0
KSW1 231436Z 17004KT 19/16 A3003 RMK A01 T01850160  RH  085%=      5-min Rain = 0
KSW1 231437Z 16005KT 19/16 A3003 RMK A01 T01850160  RH  085%=      5-min Rain = 0
KSW1 231438Z 16004KT 19/16 A3003 RMK A01 T01860159  RH  084%=      5-min Rain = 0
KSW1 231439Z 14003KT 19/16 A3003 RMK A01 T01850158  RH  085%=      5-min Rain = 0
KSW1 231440Z 14002KT 18/16 A3003 RMK A01 T01840158  RH  085%=      5-min Rain = 0
KSW1 231441Z 14003KT 18/16 A3004 RMK A01 T01840159  RH  085%=      5-min Rain = 0
KSW1 231442Z 15003KT 19/16 A3004 RMK A01 T01850159  RH  085%=      5-min Rain = 0
KSW1 231443Z 18004KT 19/16 A3004 RMK A01 T01860160  RH  085%=      5-min Rain = 0
KSW1 231444Z 18004KT 19/16 A3004 RMK A01 T01860158  RH  084%=      5-min Rain = 0
KSW1 231445Z 18004KT 19/16 A3004 RMK A01 T01860158  RH  084%=      5-min Rain = 0
KSW1 231446Z 18003KT 19/16 A3004 RMK A01 T01850158  RH  084%=      5-min Rain = 0
KSW1 231447Z 18003KT 19/16 A3005 RMK A01 T01850158  RH  085%=      5-min Rain = 0
KSW1 231448Z 16004KT 19/16 A3005 RMK A01 T01850158  RH  084%=      5-min Rain = 0
KSW1 231449Z 18004KT 19/16 A3005 RMK A01 T01850158  RH  084%=      5-min Rain = 0
KSW1 231450Z 19003KT 19/16 A3005 RMK A01 T01850159  RH  085%=      5-min Rain = 0
KSW1 231451Z 18002KT 19/16 A3005 RMK A01 T01860157  RH  083%=      5-min Rain = 0
KSW1 231452Z 21002KT 19/16 A3005 RMK A01 T01850158  RH  084%=      5-min Rain = 0
KSW1 231453Z 20003KT 19/16 A3005 RMK A01 T01850159  RH  085%=      5-min Rain = 0
KSW1 231454Z 19004KT 19/16 A3005 RMK A01 T01850159  RH  085%=      5-min Rain = 0
KSW1 231455Z 20003KT 19/16 A3005 RMK A01 T01860158  RH  084%=      5-min Rain = 0
KSW1 231456Z 19003KT 19/16 A3005 RMK A01 T01850159  RH  085%=      5-min Rain = 0
KSW1 231457Z 19004KT 19/16 A3005 RMK A01 T01850158  RH  085%=      5-min Rain = 0
KSW1 231458Z 17003KT 19/16 A3005 RMK A01 T01850158  RH  085%=      5-min Rain = 0
KSW1 231459Z 17003KT 19/16 A3005 RMK A01 T01850158  RH  085%=      5-min Rain = 0
KSW1 231500Z 16003KT 18/16 A3005 RMK A01 T01840158  RH  084%=      5-min Rain = 0
KSW1 231501Z 17003KT 18/16 A3005 RMK A01 T01840158  RH  085%=      5-min Rain = 0
KSW1 231502Z 18003KT 18/16 A3005 RMK A01 T01840159  RH  085%=      5-min Rain = 0
KSW1 231503Z 18003KT 19/16 A3005 RMK A01 T01850160  RH  085%=      5-min Rain = 0
KSW1 231504Z 17003KT 19/16 A3005 RMK A01 T01850159  RH  084%=      5-min Rain = 0
KSW1 231505Z 15003KT 19/16 A3005 RMK A01 T01850159  RH  085%=      5-min Rain = 0
KSW1 231506Z 14003KT 19/16 A3005 RMK A01 T01850159  RH  085%=      5-min Rain = 0
KSW1 231507Z 14001KT 19/16 A3005 RMK A01 T01850159  RH  085%=      5-min Rain = 0
KSW1 231508Z 15001KT 19/16 A3005 RMK A01 T01850160  RH  085%=      5-min Rain = 0
KSW1 231509Z 16003KT 19/16 A3005 RMK A01 T01860159  RH  085%=      5-min Rain = 0
KSW1 231510Z 17003KT 19/16 A3005 RMK A01 T01860160  RH  084%=      5-min Rain = 0
KSW1 231511Z 18002KT 19/16 A3005 RMK A01 T01870159  RH  084%=      5-min Rain = 0
KSW1 231512Z 16002KT 19/16 A3005 RMK A01 T01870160  RH  084%=      5-min Rain = 0
KSW1 231513Z 20002KT 19/16 A3005 RMK A01 T01870160  RH  084%=      5-min Rain = 0
KSW1 231514Z 21002KT 19/16 A3005 RMK A01 T01870159  RH  083%=      5-min Rain = 0
KSW1 231515Z 20002KT 19/16 A3005 RMK A01 T01880159  RH  084%=      5-min Rain = 0
KSW1 231516Z 19002KT 19/16 A3005 RMK A01 T01870159  RH  083%=      5-min Rain = 0
KSW1 231517Z 18002KT 19/16 A3005 RMK A01 T01870158  RH  083%=      5-min Rain = 0
KSW1 231518Z 18002KT 19/16 A3005 RMK A01 T01870158  RH  083%=      5-min Rain = 0
KSW1 231519Z 19001KT 19/16 A3005 RMK A01 T01870159  RH  084%=      5-min Rain = 0
KSW1 231520Z 18001KT 19/16 A3005 RMK A01 T01880159  RH  083%=      5-min Rain = 0
KSW1 231521Z 19001KT 19/16 A3005 RMK A01 T01870157  RH  083%=      5-min Rain = 0
KSW1 231522Z 19000KT 19/16 A3005 RMK A01 T01870157  RH  082%=      5-min Rain = 0
KSW1 231523Z 12000KT 19/16 A3005 RMK A01 T01880160  RH  083%=      5-min Rain = 0
KSW1 231524Z 13002KT 19/16 A3005 RMK A01 T01900160  RH  083%=      5-min Rain = 0
KSW1 231525Z 13000KT 19/16 A3005 RMK A01 T01910161  RH  083%=      5-min Rain = 0
KSW1 231526Z 07000KT 19/16 A3005 RMK A01 T01920161  RH  082%=      5-min Rain = 0
KSW1 231527Z 03000KT 19/16 A3005 RMK A01 T01920159  RH  081%=      5-min Rain = 0
KSW1 231528Z 03001KT 19/16 A3005 RMK A01 T01920161  RH  082%=      5-min Rain = 0
KSW1 231529Z 08002KT 19/16 A3004 RMK A01 T01920160  RH  082%=      5-min Rain = 0
KSW1 231530Z 08002KT 19/16 A3004 RMK A01 T01930161  RH  082%=      5-min Rain = 0
KSW1 231531Z 06002KT 19/16 A3005 RMK A01 T01920160  RH  082%=      5-min Rain = 0
KSW1 231532Z 06001KT 19/16 A3005 RMK A01 T01910160  RH  082%=      5-min Rain = 0
KSW1 231533Z 06000KT 19/16 A3005 RMK A01 T01910159  RH  082%=      5-min Rain = 0
KSW1 231534Z 07000KT 19/16 A3005 RMK A01 T01910159  RH  082%=      5-min Rain = 0
KSW1 231535Z 08002KT 19/16 A3005 RMK A01 T01910160  RH  082%=      5-min Rain = 0
KSW1 231536Z 07002KT 19/16 A3005 RMK A01 T01900159  RH  082%=      5-min Rain = 0
KSW1 231537Z 04001KT 19/16 A3005 RMK A01 T01900159  RH  082%=      5-min Rain = 0
KSW1 231538Z 33005KT 19/16 A3005 RMK A01 T01890160  RH  083%=      5-min Rain = 0
KSW1 231539Z 01010KT 19/16 A3005 RMK A01 T01880158  RH  083%=      5-min Rain = 0
KSW1 231540Z 02009KT 18/16 A3005 RMK A01 T01840157  RH  084%=      5-min Rain = 0
KSW1 231541Z 01011KT 18/16 A3005 RMK A01 T01810156  RH  085%=      5-min Rain = 0
KSW1 231542Z 36010KT 18/16 A3005 RMK A01 T01790156  RH  086%=      5-min Rain = 0
KSW1 231543Z 00011KT 18/16 A3005 RMK A01 T01780156  RH  087%=      5-min Rain = 0
KSW1 231544Z 01008KT 18/16 A3005 RMK A01 T01760156  RH  088%=      5-min Rain = 0
KSW1 231545Z 02008KT 18/16 A3005 RMK A01 T01760157  RH  088%=      5-min Rain = 0
KSW1 231546Z 02009KT 18/16 A3005 RMK A01 T01770157  RH  088%=      5-min Rain = 0
KSW1 231547Z 02009KT 18/16 A3005 RMK A01 T01760155  RH  088%=      5-min Rain = 0
KSW1 231548Z 02007KT 17/16 A3005 RMK A01 T01740156  RH  089%=      5-min Rain = 0
KSW1 231549Z 01011KT 17/16 A3004 RMK A01 T01740156  RH  089%=      5-min Rain = 0
KSW1 231550Z 01010KT 17/16 A3004 RMK A01 T01730155  RH  089%=      5-min Rain = 0
KSW1 231551Z 01011KT 17/16 A3004 RMK A01 T01730155  RH  089%=      5-min Rain = 0
KSW1 231552Z 01012KT 17/15 A3004 RMK A01 T01720154  RH  089%=      5-min Rain = 0
KSW1 231553Z 00010KT 17/15 A3004 RMK A01 T01710154  RH  090%=      5-min Rain = 0
KSW1 231554Z 00010KT 17/15 A3005 RMK A01 T01710154  RH  090%=      5-min Rain = 0
KSW1 231555Z 00011KT 17/15 A3005 RMK A01 T01700154  RH  090%=      5-min Rain = 0
KSW1 231556Z 00013KT 17/15 A3005 RMK A01 T01700153  RH  090%=      5-min Rain = 0
KSW1 231557Z 01014KT 17/15 A3005 RMK A01 T01690151  RH  089%=      5-min Rain = 0
KSW1 231558Z 00013KT 17/15 A3005 RMK A01 T01670151  RH  090%=      5-min Rain = 0
KSW1 231559Z 01012KT 17/15 A3005 RMK A01 T01660151  RH  090%=      5-min Rain = 0
KSW1 231600Z 00013KT 17/15 A3005 RMK A01 T01660151  RH  091%=      5-min Rain = 0
KSW1 231601Z 00011KT 17/15 A3005 RMK A01 T01660151  RH  091%=      5-min Rain = 0
KSW1 231602Z 01012KT 17/15 A3005 RMK A01 T01660151  RH  091%=      5-min Rain = 0
KSW1 231603Z 01011KT 17/15 A3005 RMK A01 T01660151  RH  091%=      5-min Rain = 0
KSW1 231604Z 01010KT 17/15 A3005 RMK A01 T01660151  RH  091%=      5-min Rain = 0
KSW1 231605Z 01012KT 17/15 A3005 RMK A01 T01650150  RH  091%=      5-min Rain = 0
KSW1 231606Z 01013KT 16/15 A3005 RMK A01 T01640150  RH  091%=      5-min Rain = 0
KSW1 231607Z 01012KT 16/15 A3005 RMK A01 T01630149  RH  091%=      5-min Rain = 0
KSW1 231608Z 02009KT 16/15 A3005 RMK A01 T01630149  RH  092%=      5-min Rain = 0
KSW1 231609Z 02009KT 16/15 A3005 RMK A01 T01630150  RH  092%=      5-min Rain = 0
KSW1 231610Z 02012KT 16/15 A3005 RMK A01 T01630150  RH  092%=      5-min Rain = 0
KSW1 231611Z 02011KT 16/15 A3005 RMK A01 T01630150  RH  092%=      5-min Rain = 0
KSW1 231612Z 02011KT 16/15 A3005 RMK A01 T01630149  RH  092%=      5-min Rain = 0
KSW1 231613Z 02011KT 16/15 A3005 RMK A01 T01620149  RH  092%=      5-min Rain = 0
KSW1 231614Z 02013KT 16/15 A3005 RMK A01 T01610149  RH  092%=      5-min Rain = 0
KSW1 231615Z 02013KT 16/15 A3005 RMK A01 T01610148  RH  092%=      5-min Rain = 0
KSW1 231616Z 02013KT 16/15 A3005 RMK A01 T01600148  RH  092%=      5-min Rain = 0
KSW1 231617Z 02013KT 16/15 A3005 RMK A01 T01600147  RH  092%=      5-min Rain = 0
KSW1 231618Z 01013KT 16/15 A3005 RMK A01 T01590147  RH  092%=      5-min Rain = 0
KSW1 231619Z 02012KT 16/15 A3004 RMK A01 T01590147  RH  092%=      5-min Rain = 0
KSW1 231620Z 02013KT 16/15 A3005 RMK A01 T01580147  RH  093%=      5-min Rain = 0
KSW1 231621Z 03014KT 16/15 A3004 RMK A01 T01580146  RH  093%=      5-min Rain = 0
KSW1 231622Z 03011KT 16/15 A3004 RMK A01 T01580147  RH  093%=      5-min Rain = 0
KSW1 231623Z 03011KT 16/15 A3004 RMK A01 T01570147  RH  094%=      5-min Rain = 0
KSW1 231624Z 04009KT 16/15 A3004 RMK A01 T01570147  RH  094%=      5-min Rain = 0
KSW1 231625Z 03011KT 16/15 A3005 RMK A01 T01570148  RH  094%=      5-min Rain = 0
KSW1 231626Z 03013KT 16/15 A3005 RMK A01 T01570147  RH  094%=      5-min Rain = 0
KSW1 231627Z 04011KT 16/15 A3005 RMK A01 T01570147  RH  094%=      5-min Rain = 0
KSW1 231628Z 03012KT 16/15 A3005 RMK A01 T01570148  RH  094%=      5-min Rain = 0
KSW1 231629Z 04009KT 16/15 A3005 RMK A01 T01580148  RH  094%=      5-min Rain = 0
KSW1 231630Z 03009KT 16/15 A3005 RMK A01 T01590149  RH  094%=      5-min Rain = 0
KSW1 231631Z 03008KT 16/15 A3005 RMK A01 T01590148  RH  093%=      5-min Rain = 0
KSW1 231632Z 02008KT 16/15 A3006 RMK A01 T01600148  RH  093%=      5-min Rain = 0
KSW1 231633Z 03010KT 16/15 A3006 RMK A01 T01590147  RH  092%=      5-min Rain = 0
KSW1 231634Z 03009KT 16/15 A3006 RMK A01 T01590146  RH  092%=      5-min Rain = 0
KSW1 231635Z 03008KT 16/15 A3006 RMK A01 T01590146  RH  092%=      5-min Rain = 0
KSW1 231636Z 02008KT 16/15 A3006 RMK A01 T01590147  RH  092%=      5-min Rain = 0
KSW1 231637Z 02007KT 16/15 A3007 RMK A01 T01590146  RH  092%=      5-min Rain = 0
KSW1 231638Z 01008KT 16/15 A3007 RMK A01 T01590146  RH  092%=      5-min Rain = 0
KSW1 231639Z 35007KT 16/15 A3007 RMK A01 T01590146  RH  092%=      5-min Rain = 0
KSW1 231640Z 35008KT 16/15 A3007 RMK A01 T01590146  RH  092%=      5-min Rain = 0
KSW1 231641Z 35009KT 16/15 A3007 RMK A01 T01590146  RH  092%=      5-min Rain = 0
KSW1 231642Z 34010KT 16/15 A3007 RMK A01 T01590145  RH  092%=      5-min Rain = 0
KSW1 231643Z 35011KT 16/15 A3007 RMK A01 T01590145  RH  091%=      5-min Rain = 0
KSW1 231644Z 34011KT 16/15 A3007 RMK A01 T01590145  RH  091%=      5-min Rain = 0
KSW1 231645Z 34011KT 16/14 A3007 RMK A01 T01590144  RH  091%=      5-min Rain = 0
KSW1 231646Z 34010KT 16/14 A3007 RMK A01 T01600144  RH  090%=      5-min Rain = 0
KSW1 231647Z 00008KT 16/14 A3007 RMK A01 T01590143  RH  090%=      5-min Rain = 0
KSW1 231648Z 02008KT 16/14 A3007 RMK A01 T01600144  RH  090%=      5-min Rain = 0
KSW1 231649Z 02008KT 16/14 A3007 RMK A01 T01600144  RH  090%=      5-min Rain = 0
KSW1 231650Z 02009KT 16/14 A3006 RMK A01 T01600144  RH  090%=      5-min Rain = 0
KSW1 231651Z 03010KT 16/14 A3006 RMK A01 T01590143  RH  090%=      5-min Rain = 0
KSW1 231652Z 04009KT 16/14 A3006 RMK A01 T01590143  RH  091%=      5-min Rain = 0
KSW1 231653Z 04011KT 16/14 A3006 RMK A01 T01580144  RH  091%=      5-min Rain = 0
KSW1 231654Z 04010KT 16/14 A3006 RMK A01 T01580143  RH  091%=      5-min Rain = 0
KSW1 231655Z 05010KT 16/14 A3006 RMK A01 T01580144  RH  091%=      5-min Rain = 0
KSW1 231656Z 05010KT 16/14 A3006 RMK A01 T01580144  RH  091%=      5-min Rain = 0
KSW1 231657Z 06009KT 16/15 A3006 RMK A01 T01580145  RH  092%=      5-min Rain = 0
KSW1 231658Z 06008KT 16/15 A3005 RMK A01 T01580146  RH  092%=      5-min Rain = 0
KSW1 231659Z 06010KT 16/15 A3005 RMK A01 T01590148  RH  093%=      5-min Rain = 0
KSW1 231700Z 06011KT 16/15 A3005 RMK A01 T01600147  RH  092%=      5-min Rain = 0
KSW1 231701Z 07010KT 16/15 A3005 RMK A01 T01600147  RH  092%=      5-min Rain = 0
KSW1 231702Z 06010KT 16/15 A3005 RMK A01 T01610149  RH  093%=      5-min Rain = 0
KSW1 231703Z 05009KT 16/15 A3005 RMK A01 T01620150  RH  093%=      5-min Rain = 0
KSW1 231704Z 06009KT 16/15 A3005 RMK A01 T01630150  RH  092%=      5-min Rain = 0
KSW1 231705Z 05011KT 16/15 A3004 RMK A01 T01640152  RH  093%=      5-min Rain = 0
KSW1 231706Z 06011KT 17/15 A3004 RMK A01 T01660154  RH  092%=      5-min Rain = 0
KSW1 231707Z 05007KT 17/15 A3004 RMK A01 T01670153  RH  091%=      5-min Rain = 0
KSW1 231708Z 06010KT 17/16 A3004 RMK A01 T01690157  RH  092%=      5-min Rain = 0
KSW1 231709Z 05009KT 17/15 A3004 RMK A01 T01710149  RH  087%=      5-min Rain = 0
KSW1 231710Z 05008KT 17/15 A3004 RMK A01 T01710153  RH  089%=      5-min Rain = 0
KSW1 231711Z 05007KT 17/15 A3004 RMK A01 T01730151  RH  087%=      5-min Rain = 0
KSW1 231712Z 05011KT 17/15 A3005 RMK A01 T01730147  RH  085%=      5-min Rain = 0
KSW1 231713Z 05010KT 17/14 A3005 RMK A01 T01710143  RH  084%=      5-min Rain = 0
KSW1 231714Z 05009KT 17/14 A3005 RMK A01 T01700144  RH  085%=      5-min Rain = 0
KSW1 231715Z 04009KT 17/15 A3005 RMK A01 T01700145  RH  086%=      5-min Rain = 0
KSW1 231716Z 05011KT 17/14 A3005 RMK A01 T01700142  RH  084%=      5-min Rain = 0
KSW1 231717Z 04009KT 17/14 A3005 RMK A01 T01700141  RH  083%=      5-min Rain = 0
KSW1 231718Z 02010KT 17/14 A3005 RMK A01 T01700141  RH  083%=      5-min Rain = 0
KSW1 231719Z 02011KT 17/14 A3005 RMK A01 T01700141  RH  083%=      5-min Rain = 0
KSW1 231720Z 03012KT 17/14 A3005 RMK A01 T01710142  RH  083%=      5-min Rain = 0
KSW1 231721Z 03012KT 17/14 A3005 RMK A01 T01720142  RH  082%=      5-min Rain = 0
KSW1 231722Z 03012KT 17/14 A3005 RMK A01 T01720141  RH  082%=      5-min Rain = 0
KSW1 231723Z 03014KT 17/14 A3004 RMK A01 T01700138  RH  081%=      5-min Rain = 0
KSW1 231724Z 03011KT 17/14 A3004 RMK A01 T01690138  RH  082%=      5-min Rain = 0
KSW1 231725Z 04011KT 17/14 A3004 RMK A01 T01690138  RH  082%=      5-min Rain = 0
KSW1 231726Z 04011KT 17/14 A3004 RMK A01 T01690137  RH  082%=      5-min Rain = 0
KSW1 231727Z 04011KT 17/14 A3004 RMK A01 T01690140  RH  083%=      5-min Rain = 0
KSW1 231728Z 04012KT 17/14 A3004 RMK A01 T01730144  RH  083%=      5-min Rain = 0
KSW1 231729Z 04010KT 18/14 A3004 RMK A01 T01760142  RH  081%=      5-min Rain = 0
KSW1 231730Z 03012KT 18/14 A3004 RMK A01 T01790143  RH  080%=      5-min Rain = 0
KSW1 231731Z 04011KT 18/14 A3005 RMK A01 T01810139  RH  077%=      5-min Rain = 0
KSW1 231732Z 03010KT 18/15 A3005 RMK A01 T01820147  RH  080%=      5-min Rain = 0
KSW1 231733Z 05010KT 18/14 A3005 RMK A01 T01840144  RH  077%=      5-min Rain = 0
KSW1 231734Z 05012KT 19/15 A3005 RMK A01 T01860147  RH  078%=      5-min Rain = 0
KSW1 231735Z 05012KT 19/14 A3005 RMK A01 T01880143  RH  075%=      5-min Rain = 0
KSW1 231736Z 04012KT 19/14 A3005 RMK A01 T01860140  RH  074%=      5-min Rain = 0
KSW1 231737Z 05011KT 19/14 A3005 RMK A01 T01860138  RH  074%=      5-min Rain = 0
KSW1 231738Z 05012KT 19/14 A3004 RMK A01 T01860141  RH  075%=      5-min Rain = 0
KSW1 231739Z 05012KT 19/14 A3004 RMK A01 T01860142  RH  075%=      5-min Rain = 0
KSW1 231740Z 04012KT 19/14 A3004 RMK A01 T01850141  RH  075%=      5-min Rain = 0
KSW1 231741Z 05011KT 19/14 A3004 RMK A01 T01850142  RH  076%=      5-min Rain = 0
KSW1 231742Z 05012KT 19/14 A3004 RMK A01 T01850141  RH  075%=      5-min Rain = 0
KSW1 231743Z 05011KT 19/14 A3004 RMK A01 T01850141  RH  076%=      5-min Rain = 0
KSW1 231744Z 05012KT 19/14 A3004 RMK A01 T01870144  RH  076%=      5-min Rain = 0
KSW1 231745Z 06012KT 19/14 A3004 RMK A01 T01900144  RH  075%=      5-min Rain = 0
KSW1 231746Z 05010KT 19/14 A3004 RMK A01 T01890142  RH  074%=      5-min Rain = 0
KSW1 231747Z 05012KT 19/14 A3004 RMK A01 T01880141  RH  074%=      5-min Rain = 0
KSW1 231748Z 04011KT 19/14 A3004 RMK A01 T01870136  RH  072%=      5-min Rain = 0
KSW1 231749Z 04011KT 19/14 A3004 RMK A01 T01860135  RH  072%=      5-min Rain = 0
KSW1 231750Z 05010KT 19/13 A3004 RMK A01 T01850134  RH  072%=      5-min Rain = 0
KSW1 231751Z 03010KT 19/14 A3004 RMK A01 T01850136  RH  073%=      5-min Rain = 0
KSW1 231752Z 03009KT 19/14 A3004 RMK A01 T01850139  RH  075%=      5-min Rain = 0
KSW1 231753Z 03010KT 19/14 A3004 RMK A01 T01850139  RH  075%=      5-min Rain = 0
KSW1 231754Z 03011KT 19/14 A3004 RMK A01 T01860141  RH  075%=      5-min Rain = 0
KSW1 231755Z 03009KT 19/14 A3004 RMK A01 T01860141  RH  075%=      5-min Rain = 0
KSW1 231756Z 04008KT 19/14 A3004 RMK A01 T01850143  RH  076%=      5-min Rain = 0
KSW1 231757Z 05009KT 19/14 A3004 RMK A01 T01870144  RH  076%=      5-min Rain = 0
KSW1 231758Z 05010KT 19/14 A3004 RMK A01 T01890143  RH  075%=      5-min Rain = 0
KSW1 231759Z 03011KT 19/14 A3004 RMK A01 T01900143  RH  074%=      5-min Rain = 0
KSW1 231800Z 03012KT 19/14 A3004 RMK A01 T01890143  RH  074%=      5-min Rain = 0
KSW1 231801Z 02011KT 19/15 A3003 RMK A01 T01900146  RH  075%=      5-min Rain = 0
KSW1 231802Z 02010KT 19/15 A3003 RMK A01 T01920147  RH  075%=      5-min Rain = 0
KSW1 231803Z 04009KT 19/15 A3003 RMK A01 T01920145  RH  074%=      5-min Rain = 0
KSW1 231804Z 04010KT 19/14 A3003 RMK A01 T01930143  RH  073%=      5-min Rain = 0
KSW1 231805Z 05011KT 19/14 A3003 RMK A01 T01900143  RH  074%=      5-min Rain = 0
KSW1 231806Z 04009KT 19/14 A3003 RMK A01 T01880143  RH  075%=      5-min Rain = 0
KSW1 231807Z 05007KT 19/14 A3003 RMK A01 T01880141  RH  074%=      5-min Rain = 0
KSW1 231808Z 06010KT 19/14 A3003 RMK A01 T01880140  RH  074%=      5-min Rain = 0
KSW1 231809Z 04011KT 19/14 A3003 RMK A01 T01890136  RH  071%=      5-min Rain = 0
KSW1 231810Z 04010KT 19/14 A3003 RMK A01 T01900137  RH  072%=      5-min Rain = 0
KSW1 231811Z 05011KT 19/14 A3003 RMK A01 T01930140  RH  071%=      5-min Rain = 0
KSW1 231812Z 05009KT 20/14 A3003 RMK A01 T01970144  RH  071%=      5-min Rain = 0
KSW1 231813Z 05009KT 20/14 A3003 RMK A01 T02000144  RH  070%=      5-min Rain = 0
KSW1 231814Z 06011KT 20/14 A3003 RMK A01 T02000144  RH  070%=      5-min Rain = 0
KSW1 231815Z 05011KT 20/14 A3003 RMK A01 T02010140  RH  068%=      5-min Rain = 0
KSW1 231816Z 06009KT 20/14 A3003 RMK A01 T02000141  RH  069%=      5-min Rain = 0
KSW1 231817Z 06010KT 20/15 A3003 RMK A01 T02010146  RH  070%=      5-min Rain = 0
KSW1 231818Z 05009KT 20/15 A3003 RMK A01 T02020147  RH  071%=      5-min Rain = 0
KSW1 231819Z 05010KT 20/15 A3003 RMK A01 T02010149  RH  072%=      5-min Rain = 0
KSW1 231820Z 04011KT 20/15 A3003 RMK A01 T02010146  RH  071%=      5-min Rain = 0
KSW1 231821Z 03010KT 20/15 A3003 RMK A01 T02000145  RH  071%=      5-min Rain = 0
KSW1 231822Z 04010KT 20/15 A3003 RMK A01 T02000151  RH  074%=      5-min Rain = 0
KSW1 231823Z 05009KT 20/15 A3003 RMK A01 T02030148  RH  071%=      5-min Rain = 0
KSW1 231824Z 04011KT 20/15 A3002 RMK A01 T02030149  RH  071%=      5-min Rain = 0
KSW1 231825Z 03011KT 20/15 A3002 RMK A01 T02030149  RH  071%=      5-min Rain = 0
KSW1 231826Z 04011KT 20/15 A3002 RMK A01 T02040150  RH  071%=      5-min Rain = 0
KSW1 231827Z 05011KT 20/15 A3002 RMK A01 T02040149  RH  071%=      5-min Rain = 0
KSW1 231828Z 05011KT 20/15 A3002 RMK A01 T02040153  RH  072%=      5-min Rain = 0
KSW1 231829Z 05009KT 21/15 A3002 RMK A01 T02050150  RH  071%=      5-min Rain = 0
KSW1 231830Z 04010KT 21/15 A3002 RMK A01 T02060148  RH  070%=      5-min Rain = 0
KSW1 231831Z 04007KT 20/15 A3002 RMK A01 T02040145  RH  069%=      5-min Rain = 0
KSW1 231832Z 06009KT 20/15 A3002 RMK A01 T02040149  RH  071%=      5-min Rain = 0
KSW1 231833Z 04008KT 21/14 A3002 RMK A01 T02070144  RH  067%=      5-min Rain = 0
KSW1 231834Z 05008KT 21/14 A3002 RMK A01 T02080138  RH  064%=      5-min Rain = 0
KSW1 231835Z 07008KT 21/14 A3002 RMK A01 T02060141  RH  066%=      5-min Rain = 0
KSW1 231836Z 05007KT 21/14 A3002 RMK A01 T02060140  RH  066%=      5-min Rain = 0
KSW1 231837Z 05009KT 21/15 A3002 RMK A01 T02060146  RH  068%=      5-min Rain = 0
KSW1 231838Z 04010KT 21/15 A3002 RMK A01 T02090146  RH  067%=      5-min Rain = 0
KSW1 231839Z 05008KT 21/15 A3002 RMK A01 T02110146  RH  066%=      5-min Rain = 0
KSW1 231840Z 06009KT 21/15 A3002 RMK A01 T02110146  RH  066%=      5-min Rain = 0
KSW1 231841Z 06010KT 21/14 A3002 RMK A01 T02130143  RH  064%=      5-min Rain = 0
KSW1 231842Z 05009KT 21/14 A3002 RMK A01 T02120140  RH  063%=      5-min Rain = 0
KSW1 231843Z 04009KT 21/14 A3002 RMK A01 T02100139  RH  064%=      5-min Rain = 0
KSW1 231844Z 04010KT 21/14 A3002 RMK A01 T02090137  RH  064%=      5-min Rain = 0
KSW1 231845Z 04011KT 21/14 A3002 RMK A01 T02070135  RH  063%=      5-min Rain = 0
KSW1 231846Z 04009KT 21/14 A3002 RMK A01 T02050136  RH  065%=      5-min Rain = 0
KSW1 231847Z 04011KT 21/14 A3002 RMK A01 T02070136  RH  064%=      5-min Rain = 0
KSW1 231848Z 04011KT 21/14 A3002 RMK A01 T02080135  RH  063%=      5-min Rain = 0
KSW1 231849Z 05010KT 21/14 A3002 RMK A01 T02100136  RH  062%=      5-min Rain = 0
KSW1 231850Z 06009KT 21/14 A3002 RMK A01 T02110138  RH  063%=      5-min Rain = 0
KSW1 231851Z 04009KT 21/14 A3002 RMK A01 T02110135  RH  062%=      5-min Rain = 0
KSW1 231852Z 04011KT 21/14 A3002 RMK A01 T02090136  RH  063%=      5-min Rain = 0
KSW1 231853Z 06011KT 21/13 A3002 RMK A01 T02080134  RH  062%=      5-min Rain = 0
KSW1 231854Z 06009KT 21/13 A3002 RMK A01 T02080134  RH  063%=      5-min Rain = 0
KSW1 231855Z 04010KT 21/14 A3002 RMK A01 T02080137  RH  064%=      5-min Rain = 0
KSW1 231856Z 04011KT 21/14 A3002 RMK A01 T02090137  RH  063%=      5-min Rain = 0
KSW1 231857Z 05011KT 21/14 A3002 RMK A01 T02080135  RH  063%=      5-min Rain = 0
KSW1 231858Z 05010KT 21/13 A3002 RMK A01 T02070134  RH  063%=      5-min Rain = 0
KSW1 231859Z 04009KT 21/13 A3002 RMK A01 T02060132  RH  063%=      5-min Rain = 0
KSW1 231900Z 03009KT 21/13 A3002 RMK A01 T02050131  RH  062%=      5-min Rain = 0
KSW1 231901Z 03009KT 21/13 A3002 RMK A01 T02050132  RH  063%=      5-min Rain = 0
KSW1 231902Z 02010KT 21/13 A3001 RMK A01 T02050133  RH  063%=      5-min Rain = 0
KSW1 231903Z 03009KT 21/14 A3001 RMK A01 T02060137  RH  065%=      5-min Rain = 0
KSW1 231904Z 04009KT 21/14 A3001 RMK A01 T02090138  RH  064%=      5-min Rain = 0
KSW1 231905Z 03008KT 21/14 A3001 RMK A01 T02090137  RH  063%=      5-min Rain = 0
KSW1 231906Z 04008KT 21/14 A3001 RMK A01 T02090135  RH  063%=      5-min Rain = 0
KSW1 231907Z 04007KT 21/14 A3001 RMK A01 T02070137  RH  064%=      5-min Rain = 0
KSW1 231908Z 05009KT 21/14 A3001 RMK A01 T02080136  RH  064%=      5-min Rain = 0
KSW1 231909Z 05008KT 21/13 A3001 RMK A01 T02070134  RH  063%=      5-min Rain = 0
KSW1 231910Z 05010KT 21/14 A3001 RMK A01 T02050135  RH  064%=      5-min Rain = 0
KSW1 231911Z 06009KT 21/14 A3001 RMK A01 T02050135  RH  064%=      5-min Rain = 0
KSW1 231912Z 06009KT 21/14 A3001 RMK A01 T02050137  RH  065%=      5-min Rain = 0
KSW1 231913Z 07009KT 21/14 A3001 RMK A01 T02050138  RH  065%=      5-min Rain = 0
KSW1 231914Z 06008KT 20/14 A3001 RMK A01 T02040139  RH  066%=      5-min Rain = 0
KSW1 231915Z 06008KT 20/14 A3001 RMK A01 T02040140  RH  066%=      5-min Rain = 0
KSW1 231916Z 06008KT 20/14 A3001 RMK A01 T02030141  RH  067%=      5-min Rain = 0
KSW1 231917Z 05007KT 20/14 A3001 RMK A01 T02040141  RH  067%=      5-min Rain = 0
KSW1 231918Z 06008KT 21/14 A3001 RMK A01 T02050143  RH  068%=      5-min Rain = 0
KSW1 231919Z 05010KT 21/14 A3001 RMK A01 T02050139  RH  066%=      5-min Rain = 0
KSW1 231920Z 06009KT 20/14 A3001 RMK A01 T02040138  RH  066%=      5-min Rain = 0
KSW1 231921Z 06007KT 20/14 A3001 RMK A01 T02020141  RH  068%=      5-min Rain = 0
KSW1 231922Z 06007KT 20/14 A3001 RMK A01 T02020144  RH  069%=      5-min Rain = 0
KSW1 231923Z 06008KT 20/14 A3001 RMK A01 T02020143  RH  069%=      5-min Rain = 0
KSW1 231924Z 06008KT 20/14 A3001 RMK A01 T02010143  RH  069%=      5-min Rain = 0
KSW1 231925Z 05009KT 20/14 A3001 RMK A01 T02010141  RH  068%=      5-min Rain = 0
KSW1 231926Z 04009KT 20/14 A3001 RMK A01 T02000140  RH  068%=      5-min Rain = 0
KSW1 231927Z 04009KT 20/14 A3001 RMK A01 T01990139  RH  068%=      5-min Rain = 0
KSW1 231928Z 04008KT 20/14 A3001 RMK A01 T01980139  RH  069%=      5-min Rain = 0
KSW1 231929Z 05009KT 20/14 A3001 RMK A01 T01990142  RH  070%=      5-min Rain = 0
KSW1 231930Z 05008KT 20/14 A3001 RMK A01 T01980141  RH  070%=      5-min Rain = 0
KSW1 231931Z 05009KT 20/14 A3001 RMK A01 T01980140  RH  069%=      5-min Rain = 0
KSW1 231932Z 05008KT 20/14 A3001 RMK A01 T01980141  RH  069%=      5-min Rain = 0
KSW1 231933Z 05009KT 20/14 A3001 RMK A01 T01980138  RH  068%=      5-min Rain = 0
KSW1 231934Z 05009KT 20/14 A3001 RMK A01 T01980140  RH  069%=      5-min Rain = 0
KSW1 231935Z 04007KT 20/14 A3001 RMK A01 T01980142  RH  070%=      5-min Rain = 0
KSW1 231936Z 04008KT 20/14 A3001 RMK A01 T01980144  RH  071%=      5-min Rain = 0
KSW1 231937Z 06009KT 20/15 A3001 RMK A01 T01980147  RH  072%=      5-min Rain = 0
KSW1 231938Z 05009KT 20/15 A30 RMK A01 T01990151  RH  074%=      5-min Rain = 0
KSW1 231939Z 05009KT 20/15 A30 RMK A01 T02000149  RH  073%=      5-min Rain = 0
KSW1 231940Z 04009KT 20/15 A30 RMK A01 T02010150  RH  072%=      5-min Rain = 0
KSW1 231941Z 04009KT 20/15 A30 RMK A01 T02040150  RH  071%=      5-min Rain = 0
KSW1 231942Z 04010KT 21/15 A30 RMK A01 T02070153  RH  071%=      5-min Rain = 0
KSW1 231943Z 04010KT 21/14 A30 RMK A01 T02080144  RH  067%=      5-min Rain = 0
KSW1 231944Z 05011KT 21/15 A30 RMK A01 T02070146  RH  068%=      5-min Rain = 0
KSW1 231945Z 05010KT 21/14 A30 RMK A01 T02060142  RH  067%=      5-min Rain = 0
KSW1 231946Z 05009KT 20/14 A30 RMK A01 T02040144  RH  068%=      5-min Rain = 0
KSW1 231947Z 05011KT 20/14 A30 RMK A01 T02040142  RH  067%=      5-min Rain = 0
KSW1 231948Z 05010KT 20/14 A30 RMK A01 T02030142  RH  068%=      5-min Rain = 0
KSW1 231949Z 04009KT 20/14 A30 RMK A01 T02030144  RH  069%=      5-min Rain = 0
KSW1 231950Z 04009KT 20/14 A30 RMK A01 T02030144  RH  069%=      5-min Rain = 0
KSW1 231951Z 02010KT 20/14 A30 RMK A01 T02020143  RH  069%=      5-min Rain = 0
KSW1 231952Z 02010KT 20/14 A3001 RMK A01 T02000142  RH  069%=      5-min Rain = 0
KSW1 231953Z 03010KT 20/14 A30 RMK A01 T01990142  RH  070%=      5-min Rain = 0
KSW1 231954Z 04010KT 20/14 A30 RMK A01 T01980141  RH  069%=      5-min Rain = 0
KSW1 231955Z 04009KT 20/14 A30 RMK A01 T01980141  RH  070%=      5-min Rain = 0
KSW1 231956Z 03010KT 20/14 A30 RMK A01 T01980143  RH  070%=      5-min Rain = 0
KSW1 231957Z 04010KT 20/14 A30 RMK A01 T01980143  RH  070%=      5-min Rain = 0
KSW1 231958Z 03009KT 20/14 A30 RMK A01 T01990143  RH  070%=      5-min Rain = 0
KSW1 231959Z 03009KT 20/14 A3001 RMK A01 T01990144  RH  070%=      5-min Rain = 0
KSW1 232000Z 02009KT 20/14 A3001 RMK A01 T01980143  RH  071%=      5-min Rain = 0
KSW1 232001Z 03008KT 20/15 A3001 RMK A01 T01980145  RH  072%=      5-min Rain = 0
KSW1 232002Z 03008KT 20/15 A3001 RMK A01 T01980145  RH  072%=      5-min Rain = 0
KSW1 232003Z 04009KT 20/14 A3001 RMK A01 T01970141  RH  070%=      5-min Rain = 0
KSW1 232004Z 03009KT 20/14 A30 RMK A01 T01970144  RH  071%=      5-min Rain = 0
KSW1 232005Z 04010KT 20/15 A30 RMK A01 T01960147  RH  073%=      5-min Rain = 0
KSW1 232006Z 03007KT 20/15 A30 RMK A01 T01960150  RH  075%=      5-min Rain = 0
KSW1 232007Z 04007KT 20/15 A3001 RMK A01 T01950149  RH  075%=      5-min Rain = 0
KSW1 232008Z 03007KT 20/15 A3001 RMK A01 T01950151  RH  076%=      5-min Rain = 0
KSW1 232009Z 03007KT 20/15 A3001 RMK A01 T01950154  RH  077%=      5-min Rain = 0
KSW1 232010Z 03010KT 20/15 A3001 RMK A01 T01950151  RH  076%=      5-min Rain = 0.01
KSW1 232011Z 03009KT 19/15 A30 RMK A01 T01940152  RH  077%=      5-min Rain = 0
KSW1 232012Z 03009KT 19/16 A30 RMK A01 T01930157  RH  080%=      5-min Rain = 0
KSW1 232013Z 03010KT 19/16 A30 RMK A01 T01920157  RH  080%=      5-min Rain = 0
KSW1 232014Z 04010KT 19/16 A30 RMK A01 T01930157  RH  080%=      5-min Rain = 0
KSW1 232015Z 03010KT 19/16 A2999 RMK A01 T01930162  RH  082%=      5-min Rain = 0
KSW1 232016Z 04009KT 20/16 A2999 RMK A01 T01950163  RH  081%=      5-min Rain = 0
KSW1 232017Z 05007KT 20/17 A2999 RMK A01 T01980167  RH  082%=      5-min Rain = 0
KSW1 232018Z 05008KT 20/17 A2999 RMK A01 T02000168  RH  082%=      5-min Rain = 0
KSW1 232019Z 05008KT 20/17 A2999 RMK A01 T02030166  RH  079%=      5-min Rain = 0
KSW1 232020Z 03009KT 21/16 A2999 RMK A01 T02050164  RH  077%=      5-min Rain = 0
KSW1 232021Z 04009KT 21/16 A2999 RMK A01 T02050163  RH  077%=      5-min Rain = 0
KSW1 232022Z 03009KT 20/16 A2999 RMK A01 T02040161  RH  076%=      5-min Rain = 0
KSW1 232023Z 04009KT 20/16 A2999 RMK A01 T02030159  RH  076%=      5-min Rain = 0
KSW1 232024Z 02008KT 20/16 A2999 RMK A01 T02020163  RH  078%=      5-min Rain = 0
KSW1 232025Z 03010KT 20/16 A2999 RMK A01 T02010159  RH  077%=      5-min Rain = 0
KSW1 232026Z 03010KT 20/16 A2999 RMK A01 T02010158  RH  076%=      5-min Rain = 0
KSW1 232027Z 03010KT 20/16 A2999 RMK A01 T02010155  RH  075%=      5-min Rain = 0
KSW1 232028Z 03010KT 20/16 A2999 RMK A01 T02010157  RH  076%=      5-min Rain = 0
KSW1 232029Z 04010KT 20/16 A2999 RMK A01 T02010156  RH  075%=      5-min Rain = 0
KSW1 232030Z 05010KT 20/16 A2999 RMK A01 T02010155  RH  075%=      5-min Rain = 0
KSW1 232031Z 04009KT 20/15 A2998 RMK A01 T02000153  RH  074%=      5-min Rain = 0
KSW1 232032Z 03010KT 20/16 A2998 RMK A01 T02000156  RH  076%=      5-min Rain = 0
KSW1 232033Z 04010KT 20/16 A2998 RMK A01 T02000155  RH  075%=      5-min Rain = 0
KSW1 232034Z 04010KT 20/15 A2998 RMK A01 T02000152  RH  074%=      5-min Rain = 0
KSW1 232035Z 02009KT 20/15 A2998 RMK A01 T01990153  RH  075%=      5-min Rain = 0
KSW1 232036Z 02010KT 20/15 A2998 RMK A01 T01980149  RH  073%=      5-min Rain = 0
KSW1 232037Z 02010KT 20/15 A2998 RMK A01 T01980147  RH  072%=      5-min Rain = 0
KSW1 232038Z 02010KT 20/14 A2998 RMK A01 T01980143  RH  070%=      5-min Rain = 0
KSW1 232039Z 03008KT 20/15 A2998 RMK A01 T01970146  RH  072%=      5-min Rain = 0
KSW1 232040Z 03009KT 20/15 A2998 RMK A01 T01970150  RH  074%=      5-min Rain = 0
KSW1 232041Z 03010KT 20/15 A2998 RMK A01 T01970145  RH  072%=      5-min Rain = 0
KSW1 232042Z 03008KT 20/15 A2998 RMK A01 T01960149  RH  074%=      5-min Rain = 0
KSW1 232043Z 04007KT 20/15 A2998 RMK A01 T01960153  RH  076%=      5-min Rain = 0
KSW1 232044Z 04009KT 20/15 A2998 RMK A01 T01950150  RH  075%=      5-min Rain = 0
KSW1 232045Z 04008KT 19/15 A2998 RMK A01 T01940149  RH  075%=      5-min Rain = 0
KSW1 232046Z 03009KT 19/15 A2998 RMK A01 T01940152  RH  077%=      5-min Rain = 0
KSW1 232047Z 03009KT 19/15 A2998 RMK A01 T01930152  RH  077%=      5-min Rain = 0
KSW1 232048Z 04009KT 19/15 A2998 RMK A01 T01930152  RH  077%=      5-min Rain = 0
KSW1 232049Z 04008KT 19/15 A2998 RMK A01 T01940150  RH  076%=      5-min Rain = 0
KSW1 232050Z 03010KT 19/15 A2998 RMK A01 T01930149  RH  075%=      5-min Rain = 0
KSW1 232051Z 04009KT 19/15 A2997 RMK A01 T01930148  RH  075%=      5-min Rain = 0
KSW1 232052Z 04009KT 19/15 A2997 RMK A01 T01940150  RH  076%=      5-min Rain = 0
KSW1 232053Z 04008KT 19/15 A2998 RMK A01 T01940152  RH  077%=      5-min Rain = 0
KSW1 232054Z 04010KT 19/15 A2998 RMK A01 T01940152  RH  076%=      5-min Rain = 0
KSW1 232055Z 04009KT 20/15 A2998 RMK A01 T01950151  RH  076%=      5-min Rain = 0
KSW1 232056Z 04008KT 20/15 A2998 RMK A01 T01960152  RH  076%=      5-min Rain = 0
KSW1 232057Z 04007KT 20/16 A2998 RMK A01 T01960156  RH  077%=      5-min Rain = 0
KSW1 232058Z 04006KT 20/16 A2998 RMK A01 T01970156  RH  077%=      5-min Rain = 0
KSW1 232059Z 04007KT 20/15 A2998 RMK A01 T01980154  RH  076%=      5-min Rain = 0
KSW1 232100Z 04007KT 20/15 A2998 RMK A01 T01980154  RH  076%=      5-min Rain = 0
KSW1 232101Z 04007KT 20/15 A2998 RMK A01 T01990153  RH  075%=      5-min Rain = 0
KSW1 232102Z 04009KT 20/15 A2997 RMK A01 T01990150  RH  073%=      5-min Rain = 0
KSW1 232103Z 03008KT 20/15 A2997 RMK A01 T01990152  RH  074%=      5-min Rain = 0
KSW1 232104Z 03009KT 20/15 A2997 RMK A01 T01990152  RH  074%=      5-min Rain = 0
KSW1 232105Z 03008KT 20/15 A2997 RMK A01 T01990152  RH  074%=      5-min Rain = 0
KSW1 232106Z 03010KT 20/15 A2997 RMK A01 T02000152  RH  074%=      5-min Rain = 0
KSW1 232107Z 04008KT 20/15 A2997 RMK A01 T02000150  RH  073%=      5-min Rain = 0
KSW1 232108Z 04009KT 20/15 A2997 RMK A01 T02000150  RH  073%=      5-min Rain = 0
KSW1 232109Z 04007KT 20/15 A2997 RMK A01 T02000148  RH  072%=      5-min Rain = 0
KSW1 232110Z 03007KT 20/15 A2997 RMK A01 T02000150  RH  073%=      5-min Rain = 0
KSW1 232111Z 04007KT 20/15 A2997 RMK A01 T02000149  RH  072%=      5-min Rain = 0
KSW1 232112Z 05008KT 20/15 A2997 RMK A01 T02000146  RH  071%=      5-min Rain = 0
KSW1 232113Z 04009KT 20/15 A2996 RMK A01 T01990145  RH  071%=      5-min Rain = 0
KSW1 232114Z 04009KT 20/14 A2996 RMK A01 T01990144  RH  071%=      5-min Rain = 0
KSW1 232115Z 04010KT 20/14 A2996 RMK A01 T01990144  RH  070%=      5-min Rain = 0
KSW1 232116Z 04011KT 20/14 A2996 RMK A01 T01990144  RH  071%=      5-min Rain = 0
KSW1 232117Z 04010KT 20/15 A2996 RMK A01 T01990146  RH  071%=      5-min Rain = 0
KSW1 232118Z 04009KT 20/15 A2996 RMK A01 T01990149  RH  073%=      5-min Rain = 0
KSW1 232119Z 05010KT 20/14 A2996 RMK A01 T01990143  RH  070%=      5-min Rain = 0
KSW1 232120Z 05011KT 20/14 A2996 RMK A01 T01990143  RH  070%=      5-min Rain = 0
KSW1 232121Z 05009KT 20/14 A2996 RMK A01 T01990143  RH  070%=      5-min Rain = 0
KSW1 232122Z 06009KT 20/14 A2996 RMK A01 T01980144  RH  071%=      5-min Rain = 0
KSW1 232123Z 06008KT 20/14 A2996 RMK A01 T01980144  RH  071%=      5-min Rain = 0
KSW1 232124Z 05008KT 20/15 A2997 RMK A01 T01970146  RH  072%=      5-min Rain = 0
KSW1 232125Z 05007KT 20/15 A2997 RMK A01 T01970147  RH  073%=      5-min Rain = 0
KSW1 232126Z 05007KT 20/15 A2997 RMK A01 T01970147  RH  073%=      5-min Rain = 0
KSW1 232127Z 06009KT 20/14 A2997 RMK A01 T01970144  RH  071%=      5-min Rain = 0
KSW1 232128Z 06009KT 20/15 A2997 RMK A01 T01970146  RH  072%=      5-min Rain = 0
KSW1 232129Z 06009KT 20/15 A2997 RMK A01 T01970149  RH  074%=      5-min Rain = 0
KSW1 232130Z 06008KT 20/15 A2997 RMK A01 T01970151  RH  075%=      5-min Rain = 0
KSW1 232131Z 06009KT 20/15 A2997 RMK A01 T01970153  RH  076%=      5-min Rain = 0
KSW1 232132Z 06008KT 20/15 A2997 RMK A01 T01970152  RH  075%=      5-min Rain = 0
KSW1 232133Z 06009KT 20/15 A2997 RMK A01 T01970153  RH  076%=      5-min Rain = 0
KSW1 232134Z 06009KT 20/15 A2996 RMK A01 T01980152  RH  075%=      5-min Rain = 0
KSW1 232135Z 06009KT 20/15 A2996 RMK A01 T01970153  RH  076%=      5-min Rain = 0
KSW1 232136Z 07008KT 20/16 A2996 RMK A01 T01970155  RH  077%=      5-min Rain = 0
KSW1 232137Z 07008KT 20/16 A2996 RMK A01 T01970157  RH  078%=      5-min Rain = 0
KSW1 232138Z 07008KT 20/16 A2996 RMK A01 T01960158  RH  079%=      5-min Rain = 0
KSW1 232139Z 07009KT 20/16 A2996 RMK A01 T01960158  RH  079%=      5-min Rain = 0
KSW1 232140Z 08009KT 20/16 A2996 RMK A01 T01960156  RH  077%=      5-min Rain = 0
KSW1 232141Z 07009KT 20/16 A2996 RMK A01 T01960155  RH  077%=      5-min Rain = 0
KSW1 232142Z 07009KT 20/16 A2996 RMK A01 T01960156  RH  078%=      5-min Rain = 0
KSW1 232143Z 07011KT 20/16 A2996 RMK A01 T01960155  RH  077%=      5-min Rain = 0
KSW1 232144Z 07010KT 20/15 A2996 RMK A01 T01960154  RH  077%=      5-min Rain = 0
KSW1 232145Z 07011KT 20/15 A2996 RMK A01 T01960153  RH  076%=      5-min Rain = 0
KSW1 232146Z 07011KT 20/15 A2996 RMK A01 T01950153  RH  077%=      5-min Rain = 0
KSW1 232147Z 07011KT 20/15 A2996 RMK A01 T01950152  RH  076%=      5-min Rain = 0
KSW1 232148Z 07011KT 20/15 A2996 RMK A01 T01950154  RH  077%=      5-min Rain = 0
KSW1 232149Z 07012KT 20/15 A2996 RMK A01 T01950152  RH  076%=      5-min Rain = 0
KSW1 232150Z 06011KT 19/15 A2996 RMK A01 T01940150  RH  076%=      5-min Rain = 0
KSW1 232151Z 06011KT 19/15 A2996 RMK A01 T01940152  RH  076%=      5-min Rain = 0
KSW1 232152Z 06010KT 19/15 A2996 RMK A01 T01940152  RH  077%=      5-min Rain = 0
KSW1 232153Z 06011KT 19/15 A2996 RMK A01 T01940151  RH  076%=      5-min Rain = 0
KSW1 232154Z 06010KT 19/15 A2996 RMK A01 T01940150  RH  076%=      5-min Rain = 0
KSW1 232155Z 05009KT 19/15 A2996 RMK A01 T01940151  RH  076%=      5-min Rain = 0
KSW1 232156Z 06009KT 19/15 A2996 RMK A01 T01940149  RH  075%=      5-min Rain = 0
KSW1 232157Z 06008KT 19/15 A2996 RMK A01 T01940149  RH  075%=      5-min Rain = 0
KSW1 232158Z 06008KT 19/15 A2996 RMK A01 T01940150  RH  076%=      5-min Rain = 0
KSW1 232159Z 06008KT 19/15 A2996 RMK A01 T01940150  RH  076%=      5-min Rain = 0
KSW1 232200Z 06009KT 19/15 A2996 RMK A01 T01940150  RH  076%=      5-min Rain = 0
KSW1 232201Z 06009KT 19/15 A2996 RMK A01 T01940149  RH  075%=      5-min Rain = 0
KSW1 232202Z 07010KT 19/15 A2995 RMK A01 T01940150  RH  076%=      5-min Rain = 0
KSW1 232203Z 06010KT 19/15 A2995 RMK A01 T01940149  RH  075%=      5-min Rain = 0
KSW1 232204Z 06009KT 19/15 A2995 RMK A01 T01940151  RH  076%=      5-min Rain = 0
KSW1 232205Z 06012KT 19/15 A2995 RMK A01 T01940148  RH  075%=      5-min Rain = 0
KSW1 232206Z 06010KT 19/15 A2995 RMK A01 T01940149  RH  075%=      5-min Rain = 0
KSW1 232207Z 06011KT 19/15 A2995 RMK A01 T01940149  RH  075%=      5-min Rain = 0
KSW1 232208Z 06008KT 19/15 A2995 RMK A01 T01940149  RH  075%=      5-min Rain = 0
KSW1 232209Z 06008KT 19/15 A2996 RMK A01 T01930151  RH  076%=      5-min Rain = 0
KSW1 232210Z 06010KT 19/15 A2996 RMK A01 T01930149  RH  076%=      5-min Rain = 0
KSW1 232211Z 06009KT 19/15 A2996 RMK A01 T01930147  RH  075%=      5-min Rain = 0
KSW1 232212Z 06011KT 19/15 A2995 RMK A01 T01930147  RH  075%=      5-min Rain = 0
KSW1 232213Z 06011KT 19/15 A2995 RMK A01 T01930146  RH  074%=      5-min Rain = 0
KSW1 232214Z 06009KT 19/15 A2995 RMK A01 T01920147  RH  075%=      5-min Rain = 0
KSW1 232215Z 06009KT 19/15 A2994 RMK A01 T01910147  RH  075%=      5-min Rain = 0
KSW1 232216Z 06010KT 19/15 A2994 RMK A01 T01910147  RH  076%=      5-min Rain = 0
KSW1 232217Z 05009KT 19/15 A2994 RMK A01 T01910147  RH  076%=      5-min Rain = 0
KSW1 232218Z 05009KT 19/15 A2994 RMK A01 T01900148  RH  076%=      5-min Rain = 0
KSW1 232219Z 05009KT 19/15 A2994 RMK A01 T01900147  RH  076%=      5-min Rain = 0
KSW1 232220Z 05009KT 19/15 A2994 RMK A01 T01890147  RH  076%=      5-min Rain = 0
KSW1 232221Z 05008KT 19/15 A2994 RMK A01 T01890147  RH  077%=      5-min Rain = 0
KSW1 232222Z 05008KT 19/15 A2994 RMK A01 T01890148  RH  077%=      5-min Rain = 0
KSW1 232223Z 05008KT 19/15 A2994 RMK A01 T01880149  RH  078%=      5-min Rain = 0
KSW1 232224Z 05010KT 19/15 A2994 RMK A01 T01880148  RH  078%=      5-min Rain = 0
KSW1 232225Z 06010KT 19/15 A2994 RMK A01 T01880148  RH  078%=      5-min Rain = 0
KSW1 232226Z 05010KT 19/15 A2994 RMK A01 T01870148  RH  078%=      5-min Rain = 0
KSW1 232227Z 05008KT 19/15 A2994 RMK A01 T01870148  RH  078%=      5-min Rain = 0
KSW1 232228Z 05008KT 19/15 A2994 RMK A01 T01870149  RH  079%=      5-min Rain = 0
KSW1 232229Z 04007KT 19/15 A2994 RMK A01 T01860149  RH  079%=      5-min Rain = 0
KSW1 232230Z 04008KT 19/15 A2994 RMK A01 T01860149  RH  079%=      5-min Rain = 0
KSW1 232231Z 04010KT 19/15 A2993 RMK A01 T01850149  RH  079%=      5-min Rain = 0
KSW1 232232Z 05009KT 19/15 A2993 RMK A01 T01850149  RH  079%=      5-min Rain = 0
KSW1 232233Z 05009KT 19/15 A2993 RMK A01 T01860150  RH  079%=      5-min Rain = 0
KSW1 232234Z 05010KT 19/15 A2993 RMK A01 T01850150  RH  080%=      5-min Rain = 0
KSW1 232235Z 05009KT 19/15 A2993 RMK A01 T01850150  RH  080%=      5-min Rain = 0
KSW1 232236Z 06008KT 19/15 A2993 RMK A01 T01850150  RH  080%=      5-min Rain = 0
KSW1 232237Z 07008KT 19/15 A2993 RMK A01 T01850150  RH  080%=      5-min Rain = 0
KSW1 232238Z 07008KT 19/15 A2994 RMK A01 T01850151  RH  081%=      5-min Rain = 0
KSW1 232239Z 07008KT 18/15 A2994 RMK A01 T01840151  RH  081%=      5-min Rain = 0
KSW1 232240Z 07007KT 18/15 A2995 RMK A01 T01840151  RH  081%=      5-min Rain = 0
KSW1 232241Z 06007KT 18/15 A2995 RMK A01 T01840153  RH  082%=      5-min Rain = 0
KSW1 232242Z 06006KT 18/15 A2995 RMK A01 T01840153  RH  082%=      5-min Rain = 0
KSW1 232243Z 05007KT 18/15 A2995 RMK A01 T01830153  RH  082%=      5-min Rain = 0
KSW1 232244Z 05007KT 18/15 A2995 RMK A01 T01830154  RH  083%=      5-min Rain = 0
KSW1 232245Z 04007KT 18/15 A2995 RMK A01 T01820153  RH  083%=      5-min Rain = 0
KSW1 232246Z 05009KT 18/15 A2995 RMK A01 T01820153  RH  083%=      5-min Rain = 0
KSW1 232247Z 05008KT 18/15 A2996 RMK A01 T01820152  RH  083%=      5-min Rain = 0
KSW1 232248Z 05007KT 18/15 A2996 RMK A01 T01820153  RH  083%=      5-min Rain = 0
KSW1 232249Z 05009KT 18/15 A2996 RMK A01 T01820153  RH  083%=      5-min Rain = 0
KSW1 232250Z 05007KT 18/15 A2996 RMK A01 T01820153  RH  083%=      5-min Rain = 0
KSW1 232251Z 05008KT 18/16 A2995 RMK A01 T01820155  RH  084%=      5-min Rain = 0
KSW1 232252Z 05008KT 18/15 A2995 RMK A01 T01810154  RH  084%=      5-min Rain = 0
KSW1 232253Z 05008KT 18/16 A2995 RMK A01 T01810155  RH  085%=      5-min Rain = 0
KSW1 232254Z 05009KT 18/16 A2995 RMK A01 T01800155  RH  085%=      5-min Rain = 0.01
KSW1 232255Z 05010KT 18/16 A2994 RMK A01 T01790155  RH  086%=      5-min Rain = 0
KSW1 232256Z 05011KT 18/16 A2994 RMK A01 T01790155  RH  086%=      5-min Rain = 0
KSW1 232257Z 05012KT 18/16 A2994 RMK A01 T01780155  RH  086%=      5-min Rain = 0
KSW1 232258Z 05011KT 18/16 A2994 RMK A01 T01780156  RH  087%=      5-min Rain = 0.01
KSW1 232259Z 05012KT 18/16 A2993 RMK A01 T01770156  RH  088%=      5-min Rain = 0
KSW1 232300Z 05010KT 18/16 A2993 RMK A01 T01760156  RH  088%=      5-min Rain = 0.01
KSW1 232301Z 05011KT 18/16 A2993 RMK A01 T01760156  RH  088%=      5-min Rain = 0
KSW1 232302Z 05010KT 18/16 A2993 RMK A01 T01750156  RH  089%=      5-min Rain = 0
KSW1 232303Z 06010KT 18/16 A2993 RMK A01 T01750157  RH  089%=      5-min Rain = 0.01
KSW1 232304Z 06009KT 17/16 A2993 RMK A01 T01740158  RH  090%=      5-min Rain = 0
KSW1 232305Z 06010KT 17/16 A2993 RMK A01 T01740159  RH  091%=      5-min Rain = 0
KSW1 232306Z 07012KT 17/16 A2994 RMK A01 T01740160  RH  091%=      5-min Rain = 0.01
KSW1 232307Z 07011KT 17/16 A2994 RMK A01 T01730159  RH  091%=      5-min Rain = 0
KSW1 232308Z 07011KT 17/16 A2994 RMK A01 T01730160  RH  092%=      5-min Rain = 0
KSW1 232309Z 08012KT 17/16 A2994 RMK A01 T01730160  RH  092%=      5-min Rain = 0.01
KSW1 232310Z 08010KT 17/16 A2995 RMK A01 T01730160  RH  092%=      5-min Rain = 0
KSW1 232311Z 08011KT 17/16 A2995 RMK A01 T01730161  RH  092%=      5-min Rain = 0.01
KSW1 232312Z 08012KT 17/16 A2995 RMK A01 T01720160  RH  093%=      5-min Rain = 0
KSW1 232313Z 07012KT 17/16 A2995 RMK A01 T01720160  RH  092%=      5-min Rain = 0
KSW1 232314Z 07012KT 17/16 A2994 RMK A01 T01720160  RH  092%=      5-min Rain = 0.01
KSW1 232315Z 06013KT 17/16 A2993 RMK A01 T01720160  RH  092%=      5-min Rain = 0
KSW1 232316Z 06014KT 17/16 A2993 RMK A01 T01720160  RH  093%=      5-min Rain = 0.01
KSW1 232317Z 06014KT 17/16 A2992 RMK A01 T01710159  RH  093%=      5-min Rain = 0
KSW1 232318Z 05015KT 17/16 A2991 RMK A01 T01710159  RH  093%=      5-min Rain = 0
KSW1 232319Z 05015KT 17/16 A2991 RMK A01 T01710159  RH  092%=      5-min Rain = 0.01
KSW1 232320Z 05015KT 17/16 A2991 RMK A01 T01710158  RH  092%=      5-min Rain = 0
KSW1 232321Z 05012KT 17/16 A2991 RMK A01 T01700158  RH  092%=      5-min Rain = 0
KSW1 232322Z 05013KT 17/16 A2991 RMK A01 T01710158  RH  092%=      5-min Rain = 0
KSW1 232323Z 05011KT 17/16 A2991 RMK A01 T01700158  RH  092%=      5-min Rain = 0.01
KSW1 232324Z 05014KT 17/16 A2991 RMK A01 T01700158  RH  093%=      5-min Rain = 0
KSW1 232325Z 05012KT 17/16 A2991 RMK A01 T01700158  RH  093%=      5-min Rain = 0
KSW1 232326Z 06013KT 17/16 A2991 RMK A01 T01700158  RH  093%=      5-min Rain = 0
KSW1 232327Z 06012KT 17/16 A2992 RMK A01 T01700158  RH  093%=      5-min Rain = 0
KSW1 232328Z 06012KT 17/16 A2992 RMK A01 T01700158  RH  093%=      5-min Rain = 0
KSW1 232329Z 07014KT 17/16 A2993 RMK A01 T01700159  RH  093%=      5-min Rain = 0.01
KSW1 232330Z 07012KT 17/16 A2994 RMK A01 T01690158  RH  093%=      5-min Rain = 0
KSW1 232331Z 06012KT 17/16 A2994 RMK A01 T01690158  RH  093%=      5-min Rain = 0
KSW1 232332Z 06011KT 17/16 A2995 RMK A01 T01690158  RH  093%=      5-min Rain = 0
KSW1 232333Z 05010KT 17/16 A2995 RMK A01 T01690158  RH  093%=      5-min Rain = 0
KSW1 232334Z 04010KT 17/16 A2995 RMK A01 T01690158  RH  093%=      5-min Rain = 0
KSW1 232335Z 04010KT 17/16 A2995 RMK A01 T01690158  RH  093%=      5-min Rain = 0.01
KSW1 232336Z 02011KT 17/16 A2994 RMK A01 T01690158  RH  093%=      5-min Rain = 0
KSW1 232337Z 02010KT 17/16 A2994 RMK A01 T01690157  RH  093%=      5-min Rain = 0
KSW1 232338Z 01011KT 17/16 A2994 RMK A01 T01690158  RH  093%=      5-min Rain = 0
KSW1 232339Z 01013KT 17/16 A2994 RMK A01 T01680157  RH  093%=      5-min Rain = 0
KSW1 232340Z 01013KT 17/16 A2994 RMK A01 T01680157  RH  093%=      5-min Rain = 0
KSW1 232341Z 01010KT 17/16 A2994 RMK A01 T01680157  RH  093%=      5-min Rain = 0
KSW1 232342Z 01012KT 17/16 A2994 RMK A01 T01680156  RH  093%=      5-min Rain = 0.01
KSW1 232343Z 01010KT 17/16 A2995 RMK A01 T01670156  RH  093%=      5-min Rain = 0.01
KSW1 232344Z 01011KT 17/16 A2995 RMK A01 T01670155  RH  093%=      5-min Rain = 0.01
KSW1 232345Z 01010KT 17/16 A2995 RMK A01 T01670155  RH  093%=      5-min Rain = 0
KSW1 232346Z 02011KT 17/16 A2995 RMK A01 T01670156  RH  093%=      5-min Rain = 0.01
KSW1 232347Z 02012KT 17/16 A2995 RMK A01 T01660155  RH  093%=      5-min Rain = 0
KSW1 232348Z 03012KT 17/16 A2995 RMK A01 T01660155  RH  093%=      5-min Rain = 0.01
KSW1 232349Z 03012KT 17/16 A2994 RMK A01 T01660155  RH  093%=      5-min Rain = 0.01
KSW1 232350Z 03013KT 17/15 A2994 RMK A01 T01660154  RH  093%=      5-min Rain = 0
KSW1 232351Z 03014KT 17/15 A2994 RMK A01 T01660154  RH  093%=      5-min Rain = 0.01
KSW1 232352Z 03013KT 17/15 A2994 RMK A01 T01660154  RH  092%=      5-min Rain = 0.01
KSW1 232353Z 03012KT 17/15 A2994 RMK A01 T01650153  RH  092%=      5-min Rain = 0.01
KSW1 232354Z 03009KT 17/15 A2994 RMK A01 T01660154  RH  093%=      5-min Rain = 0.01
KSW1 232355Z 04010KT 17/15 A2994 RMK A01 T01650154  RH  093%=      5-min Rain = 0.01
KSW1 232356Z 04010KT 17/15 A2995 RMK A01 T01650154  RH  093%=      5-min Rain = 0
KSW1 232357Z 05009KT 17/15 A2995 RMK A01 T01650154  RH  093%=      5-min Rain = 0.01
KSW1 232358Z 05010KT 16/15 A2995 RMK A01 T01640153  RH  093%=      5-min Rain = 0
KSW1 232359Z 06010KT 17/15 A2995 RMK A01 T01650153  RH  093%=      5-min Rain = 0.01
KSW1 240000Z 06011G16KT 17/15 A2995 RMK A01 T01650154  RH  093%=      5-min Rain = 0
KSW1 240001Z 06012KT 17/15 A2995 RMK A01 T01650154  RH  093%=      5-min Rain = 0
KSW1 240002Z 07010KT 17/15 A2995 RMK A01 T01650154  RH  093%=      5-min Rain = 0
KSW1 240003Z 06011KT 16/15 A2996 RMK A01 T01640154  RH  093%=      5-min Rain = 0.01
KSW1 240004Z 07009KT 16/15 A2996 RMK A01 T01640154  RH  093%=      5-min Rain = 0
KSW1 240005Z 08008KT 16/15 A2997 RMK A01 T01640154  RH  093%=      5-min Rain = 0.01
KSW1 240006Z 07010KT 17/15 A2997 RMK A01 T01650154  RH  094%=      5-min Rain = 0
KSW1 240007Z 06009KT 17/15 A2997 RMK A01 T01650154  RH  093%=      5-min Rain = 0
KSW1 240008Z 07008KT 17/15 A2997 RMK A01 T01650154  RH  093%=      5-min Rain = 0.01
KSW1 240009Z 06009KT 17/15 A2997 RMK A01 T01650154  RH  093%=      5-min Rain = 0
KSW1 240010Z 06010KT 17/15 A2997 RMK A01 T01650154  RH  093%=      5-min Rain = 0
KSW1 240011Z 06009KT 16/15 A2996 RMK A01 T01640153  RH  093%=      5-min Rain = 0
KSW1 240012Z 06010KT 17/15 A2996 RMK A01 T01650154  RH  093%=      5-min Rain = 0.01
KSW1 240013Z 06010KT 16/15 A2996 RMK A01 T01640154  RH  094%=      5-min Rain = 0
KSW1 240014Z 05011KT 16/15 A2995 RMK A01 T01640154  RH  094%=      5-min Rain = 0
KSW1 240015Z 05011KT 16/15 A2995 RMK A01 T01640154  RH  094%=      5-min Rain = 0.01
KSW1 240016Z 06012KT 16/15 A2995 RMK A01 T01640154  RH  094%=      5-min Rain = 0
KSW1 240017Z 06014KT 16/15 A2995 RMK A01 T01640154  RH  094%=      5-min Rain = 0
KSW1 240018Z 06012KT 16/15 A2995 RMK A01 T01640154  RH  094%=      5-min Rain = 0
KSW1 240019Z 05013KT 16/16 A2995 RMK A01 T01640155  RH  094%=      5-min Rain = 0
KSW1 240020Z 05013KT 16/15 A2995 RMK A01 T01630154  RH  094%=      5-min Rain = 0
KSW1 240021Z 05012KT 16/16 A2995 RMK A01 T01630155  RH  094%=      5-min Rain = 0
KSW1 240022Z 05011KT 16/15 A2994 RMK A01 T01630154  RH  095%=      5-min Rain = 0
KSW1 240023Z 05013KT 16/16 A2994 RMK A01 T01630155  RH  095%=      5-min Rain = 0.01
KSW1 240024Z 04011KT 16/16 A2994 RMK A01 T01630155  RH  095%=      5-min Rain = 0
KSW1 240025Z 04013KT 16/16 A2994 RMK A01 T01630155  RH  095%=      5-min Rain = 0
KSW1 240026Z 04013KT 16/16 A2993 RMK A01 T01630155  RH  095%=      5-min Rain = 0
KSW1 240027Z 04012KT 16/16 A2993 RMK A01 T01630155  RH  095%=      5-min Rain = 0
KSW1 240028Z 04011KT 16/16 A2993 RMK A01 T01630155  RH  095%=      5-min Rain = 0
KSW1 240029Z 03011KT 16/16 A2993 RMK A01 T01630155  RH  095%=      5-min Rain = 0
KSW1 240030Z 03013G19KT 16/16 A2993 RMK A01 T01630155  RH  095%=      5-min Rain = 0
KSW1 240031Z 04012KT 16/15 A2994 RMK A01 T01630154  RH  095%=      5-min Rain = 0
KSW1 240032Z 05011KT 16/15 A2993 RMK A01 T01630154  RH  095%=      5-min Rain = 0
KSW1 240033Z 04011KT 16/15 A2993 RMK A01 T01630154  RH  095%=      5-min Rain = 0
KSW1 240034Z 05013KT 16/16 A2993 RMK A01 T01630155  RH  095%=      5-min Rain = 0
KSW1 240035Z 05013KT 16/15 A2994 RMK A01 T01620154  RH  095%=      5-min Rain = 0
KSW1 240036Z 04011KT 16/16 A2994 RMK A01 T01620155  RH  095%=      5-min Rain = 0
KSW1 240037Z 04013KT 16/15 A2994 RMK A01 T01620154  RH  095%=      5-min Rain = 0
KSW1 240038Z 04012KT 16/15 A2994 RMK A01 T01620154  RH  095%=      5-min Rain = 0
KSW1 240039Z 04011KT 16/15 A2994 RMK A01 T01620154  RH  095%=      5-min Rain = 0
KSW1 240040Z 04011KT 16/16 A2994 RMK A01 T01620155  RH  095%=      5-min Rain = 0
KSW1 240041Z 03010G15KT 16/16 A2994 RMK A01 T01620155  RH  095%=      5-min Rain = 0
KSW1 240042Z 03010KT 16/16 A2995 RMK A01 T01620155  RH  095%=      5-min Rain = 0
KSW1 240043Z 03009KT 16/16 A2995 RMK A01 T01620155  RH  095%=      5-min Rain = 0
KSW1 240044Z 03011KT 16/16 A2995 RMK A01 T01620155  RH  095%=      5-min Rain = 0
KSW1 240045Z 03011KT 16/15 A2995 RMK A01 T01620154  RH  095%=      5-min Rain = 0
KSW1 240046Z 02009KT 16/15 A2995 RMK A01 T01620154  RH  095%=      5-min Rain = 0
KSW1 240047Z 02010KT 16/15 A2995 RMK A01 T01620154  RH  095%=      5-min Rain = 0
KSW1 240048Z 02007KT 16/15 A2996 RMK A01 T01620154  RH  095%=      5-min Rain = 0
KSW1 240049Z 02009KT 16/15 A2996 RMK A01 T01620154  RH  095%=      5-min Rain = 0
KSW1 240050Z 02007KT 16/15 A2996 RMK A01 T01620154  RH  095%=      5-min Rain = 0
KSW1 240051Z 02007KT 16/15 A2996 RMK A01 T01620154  RH  095%=      5-min Rain = 0
KSW1 240052Z 01009KT 16/15 A2996 RMK A01 T01620154  RH  095%=      5-min Rain = 0
KSW1 240053Z 02009KT 16/15 A2996 RMK A01 T01620154  RH  095%=      5-min Rain = 0
KSW1 240054Z 02009KT 16/16 A2996 RMK A01 T01620155  RH  095%=      5-min Rain = 0
KSW1 240055Z 02010KT 16/15 A2996 RMK A01 T01620154  RH  095%=      5-min Rain = 0
KSW1 240056Z 02009KT 16/15 A2996 RMK A01 T01620154  RH  095%=      5-min Rain = 0
KSW1 240057Z 02011KT 16/15 A2996 RMK A01 T01620154  RH  095%=      5-min Rain = 0
KSW1 240058Z 02012KT 16/15 A2997 RMK A01 T01620153  RH  095%=      5-min Rain = 0
KSW1 240059Z 02014KT 16/15 A2997 RMK A01 T01620152  RH  094%=      5-min Rain = 0
KSW1 240100Z 02016KT 16/15 A2997 RMK A01 T01620152  RH  094%=      5-min Rain = 0
KSW1 240101Z 02014KT 16/15 A2997 RMK A01 T01610151  RH  093%=      5-min Rain = 0
KSW1 240102Z 02013KT 16/15 A2997 RMK A01 T01610151  RH  093%=      5-min Rain = 0
KSW1 240103Z 02012KT 16/15 A2997 RMK A01 T01610151  RH  093%=      5-min Rain = 0
KSW1 240104Z 02014KT 16/15 A2997 RMK A01 T01610151  RH  093%=      5-min Rain = 0
KSW1 240105Z 03013KT 16/15 A2997 RMK A01 T01610150  RH  093%=      5-min Rain = 0
KSW1 240106Z 03012KT 16/15 A2997 RMK A01 T01610150  RH  093%=      5-min Rain = 0
KSW1 240107Z 02012KT 16/15 A2997 RMK A01 T01610150  RH  093%=      5-min Rain = 0
KSW1 240108Z 03010KT 16/15 A2997 RMK A01 T01610150  RH  094%=      5-min Rain = 0
KSW1 240109Z 03014KT 16/15 A2997 RMK A01 T01600150  RH  094%=      5-min Rain = 0
KSW1 240110Z 03011KT 16/15 A2997 RMK A01 T01600150  RH  094%=      5-min Rain = 0
KSW1 240111Z 03013KT 16/15 A2997 RMK A01 T01600150  RH  094%=      5-min Rain = 0
KSW1 240112Z 03011KT 16/15 A2997 RMK A01 T01600150  RH  094%=      5-min Rain = 0
KSW1 240113Z 03013KT 16/15 A2996 RMK A01 T01600150  RH  094%=      5-min Rain = 0
KSW1 240114Z 03012KT 16/15 A2996 RMK A01 T01600151  RH  094%=      5-min Rain = 0
KSW1 240115Z 03012KT 16/15 A2996 RMK A01 T01600151  RH  094%=      5-min Rain = 0
KSW1 240116Z 04009KT 16/15 A2996 RMK A01 T01600151  RH  094%=      5-min Rain = 0
KSW1 240117Z 03011KT 16/15 A2996 RMK A01 T01590151  RH  095%=      5-min Rain = 0
KSW1 240118Z 03010KT 16/15 A2996 RMK A01 T01590151  RH  095%=      5-min Rain = 0
KSW1 240119Z 03011KT 16/15 A2996 RMK A01 T01590151  RH  095%=      5-min Rain = 0
KSW1 240120Z 03010KT 16/15 A2996 RMK A01 T01590151  RH  095%=      5-min Rain = 0
KSW1 240121Z 03012KT 16/15 A2996 RMK A01 T01590151  RH  095%=      5-min Rain = 0
KSW1 240122Z 03011KT 16/15 A2996 RMK A01 T01590151  RH  095%=      5-min Rain = 0
KSW1 240123Z 03012KT 16/15 A2996 RMK A01 T01590151  RH  095%=      5-min Rain = 0
KSW1 240124Z 03011KT 16/15 A2996 RMK A01 T01580150  RH  095%=      5-min Rain = 0
KSW1 240125Z 02012KT 16/15 A2996 RMK A01 T01590150  RH  095%=      5-min Rain = 0
KSW1 240126Z 03012KT 16/15 A2996 RMK A01 T01590150  RH  095%=      5-min Rain = 0
KSW1 240127Z 03012KT 16/15 A2996 RMK A01 T01590150  RH  095%=      5-min Rain = 0
KSW1 240128Z 03012KT 16/15 A2996 RMK A01 T01580150  RH  095%=      5-min Rain = 0
KSW1 240129Z 03011KT 16/15 A2996 RMK A01 T01590150  RH  095%=      5-min Rain = 0
KSW1 240130Z 03012KT 16/15 A2996 RMK A01 T01580150  RH  095%=      5-min Rain = 0
KSW1 240131Z 03014G19KT 16/15 A2996 RMK A01 T01580150  RH  095%=      5-min Rain = 0
KSW1 240132Z 04015KT 16/15 A2997 RMK A01 T01580149  RH  094%=      5-min Rain = 0
KSW1 240133Z 04013KT 16/15 A2997 RMK A01 T01580149  RH  094%=      5-min Rain = 0
KSW1 240134Z 03015KT 16/15 A2997 RMK A01 T01580148  RH  094%=      5-min Rain = 0
KSW1 240135Z 04016KT 16/15 A2997 RMK A01 T01580147  RH  094%=      5-min Rain = 0
KSW1 240136Z 03015KT 16/15 A2997 RMK A01 T01580148  RH  094%=      5-min Rain = 0
KSW1 240137Z 03015KT 16/15 A2997 RMK A01 T01580148  RH  094%=      5-min Rain = 0
KSW1 240138Z 04016KT 16/15 A2997 RMK A01 T01570147  RH  094%=      5-min Rain = 0
KSW1 240139Z 04013KT 16/15 A2997 RMK A01 T01570147  RH  094%=      5-min Rain = 0
KSW1 240140Z 03014KT 16/15 A2997 RMK A01 T01570148  RH  094%=      5-min Rain = 0
KSW1 240141Z 04015KT 16/15 A2997 RMK A01 T01570147  RH  094%=      5-min Rain = 0
KSW1 240142Z 03015KT 16/15 A2997 RMK A01 T01570147  RH  094%=      5-min Rain = 0
KSW1 240143Z 03016KT 16/15 A2997 RMK A01 T01560147  RH  094%=      5-min Rain = 0
KSW1 240144Z 03016KT 16/15 A2997 RMK A01 T01560147  RH  094%=      5-min Rain = 0
KSW1 240145Z 03011KT 16/15 A2997 RMK A01 T01560147  RH  094%=      5-min Rain = 0
KSW1 240146Z 03012KT 16/15 A2997 RMK A01 T01560148  RH  095%=      5-min Rain = 0
KSW1 240147Z 03012KT 16/15 A2997 RMK A01 T01560148  RH  095%=      5-min Rain = 0
KSW1 240148Z 03014KT 16/15 A2997 RMK A01 T01560147  RH  095%=      5-min Rain = 0
KSW1 240149Z 03013KT 16/15 A2997 RMK A01 T01560147  RH  095%=      5-min Rain = 0
KSW1 240150Z 04013KT 16/15 A2997 RMK A01 T01560147  RH  095%=      5-min Rain = 0
KSW1 240151Z 03015KT 16/15 A2997 RMK A01 T01560148  RH  095%=      5-min Rain = 0
KSW1 240152Z 03014KT 16/15 A2997 RMK A01 T01560148  RH  095%=      5-min Rain = 0
KSW1 240153Z 03014KT 16/15 A2998 RMK A01 T01560148  RH  095%=      5-min Rain = 0
KSW1 240154Z 03014KT 16/15 A2997 RMK A01 T01560148  RH  095%=      5-min Rain = 0
KSW1 240155Z 03011KT 16/15 A2997 RMK A01 T01560148  RH  095%=      5-min Rain = 0
KSW1 240156Z 03014KT 16/15 A2997 RMK A01 T01560148  RH  095%=      5-min Rain = 0
KSW1 240157Z 02018G23KT 16/15 A2997 RMK A01 T01550147  RH  095%=      5-min Rain = 0
KSW1 240158Z 02015G20KT 15/15 A2996 RMK A01 T01540145  RH  094%=      5-min Rain = 0
KSW1 240159Z 02015KT 15/14 A2996 RMK A01 T01540144  RH  094%=      5-min Rain = 0
KSW1 240200Z 03016KT 15/14 A2996 RMK A01 T01530144  RH  094%=      5-min Rain = 0
KSW1 240201Z 02014KT 15/15 A2996 RMK A01 T01530145  RH  095%=      5-min Rain = 0
KSW1 240202Z 03013KT 15/14 A2997 RMK A01 T01530144  RH  095%=      5-min Rain = 0
KSW1 240203Z 03015G20KT 15/15 A2997 RMK A01 T01530145  RH  095%=      5-min Rain = 0
KSW1 240204Z 02017KT 15/14 A2997 RMK A01 T01520144  RH  095%=      5-min Rain = 0
KSW1 240205Z 02018KT 15/14 A2997 RMK A01 T01520144  RH  095%=      5-min Rain = 0
KSW1 240206Z 03016KT 15/14 A2997 RMK A01 T01510143  RH  095%=      5-min Rain = 0
KSW1 240207Z 02013KT 15/14 A2997 RMK A01 T01510143  RH  095%=      5-min Rain = 0
KSW1 240208Z 03019KT 15/14 A2997 RMK A01 T01510143  RH  095%=      5-min Rain = 0
KSW1 240209Z 03017G24KT 15/14 A2996 RMK A01 T01500142  RH  095%=      5-min Rain = 0
KSW1 240210Z 03016KT 15/14 A2996 RMK A01 T01500142  RH  095%=      5-min Rain = 0
KSW1 240211Z 03017KT 15/14 A2996 RMK A01 T01500142  RH  095%=      5-min Rain = 0
KSW1 240212Z 03018G23KT 15/14 A2996 RMK A01 T01500142  RH  095%=      5-min Rain = 0
KSW1 240213Z 03019KT 15/14 A2996 RMK A01 T01500142  RH  095%=      5-min Rain = 0
KSW1 240214Z 03016KT 15/14 A2996 RMK A01 T01500142  RH  095%=      5-min Rain = 0
KSW1 240215Z 03016G21KT 15/14 A2996 RMK A01 T01500142  RH  095%=      5-min Rain = 0
KSW1 240216Z 03018KT 15/14 A2996 RMK A01 T01500142  RH  095%=      5-min Rain = 0
KSW1 240217Z 03018KT 15/14 A2996 RMK A01 T01490141  RH  095%=      5-min Rain = 0
KSW1 240218Z 03016G21KT 15/14 A2996 RMK A01 T01490142  RH  095%=      5-min Rain = 0
KSW1 240219Z 03020KT 15/14 A2996 RMK A01 T01500142  RH  095%=      5-min Rain = 0
KSW1 240220Z 03017KT 15/14 A2996 RMK A01 T01490141  RH  095%=      5-min Rain = 0
KSW1 240221Z 03015KT 15/14 A2996 RMK A01 T01490141  RH  095%=      5-min Rain = 0
KSW1 240222Z 02015KT 15/14 A2996 RMK A01 T01490141  RH  095%=      5-min Rain = 0
KSW1 240223Z 03018KT 15/14 A2995 RMK A01 T01490141  RH  095%=      5-min Rain = 0
KSW1 240224Z 02016G23KT 15/14 A2995 RMK A01 T01480141  RH  095%=      5-min Rain = 0
KSW1 240225Z 02020KT 15/14 A2995 RMK A01 T01490141  RH  095%=      5-min Rain = 0
KSW1 240226Z 03017KT 15/14 A2995 RMK A01 T01480141  RH  095%=      5-min Rain = 0
KSW1 240227Z 02017KT 15/14 A2995 RMK A01 T01480141  RH  095%=      5-min Rain = 0
KSW1 240228Z 03019KT 15/14 A2995 RMK A01 T01480141  RH  095%=      5-min Rain = 0
KSW1 240229Z 03020G26KT 15/14 A2995 RMK A01 T01480140  RH  095%=      5-min Rain = 0
KSW1 240230Z 03019G24KT 15/14 A2995 RMK A01 T01480140  RH  095%=      5-min Rain = 0
KSW1 240231Z 03020G25KT 15/14 A2995 RMK A01 T01480140  RH  095%=      5-min Rain = 0
KSW1 240232Z 04019G24KT 15/14 A2995 RMK A01 T01480140  RH  095%=      5-min Rain = 0
KSW1 240233Z 03016G23KT 15/14 A2995 RMK A01 T01480140  RH  095%=      5-min Rain = 0
KSW1 240234Z 04018KT 15/14 A2995 RMK A01 T01480140  RH  095%=      5-min Rain = 0
KSW1 240235Z 04017KT 15/14 A2995 RMK A01 T01480140  RH  095%=      5-min Rain = 0
KSW1 240236Z 03017KT 15/14 A2995 RMK A01 T01470139  RH  095%=      5-min Rain = 0
KSW1 240237Z 03019KT 15/14 A2995 RMK A01 T01470139  RH  095%=      5-min Rain = 0
KSW1 240238Z 03021G26KT 15/14 A2994 RMK A01 T01470139  RH  095%=      5-min Rain = 0
KSW1 240239Z 03021KT 15/14 A2994 RMK A01 T01470139  RH  095%=      5-min Rain = 0
KSW1 240240Z 03019KT 15/14 A2993 RMK A01 T01470139  RH  095%=      5-min Rain = 0
KSW1 240241Z 03019G25KT 15/14 A2993 RMK A01 T01460138  RH  095%=      5-min Rain = 0
KSW1 240242Z 02022KT 15/14 A2992 RMK A01 T01460139  RH  095%=      5-min Rain = 0
KSW1 240243Z 02020G27KT 15/14 A2992 RMK A01 T01460138  RH  095%=      5-min Rain = 0
KSW1 240244Z 03022KT 15/14 A2992 RMK A01 T01460138  RH  095%=      5-min Rain = 0
KSW1 240245Z 03020KT 15/14 A2992 RMK A01 T01450138  RH  095%=      5-min Rain = 0
KSW1 240246Z 03019G24KT 15/14 A2992 RMK A01 T01450138  RH  095%=      5-min Rain = 0
KSW1 240247Z 03017KT 15/14 A2992 RMK A01 T01450138  RH  095%=      5-min Rain = 0
KSW1 240248Z 03020G25KT 15/14 A2993 RMK A01 T01450138  RH  095%=      5-min Rain = 0
KSW1 240249Z 03023KT 15/14 A2993 RMK A01 T01450137  RH  095%=      5-min Rain = 0
KSW1 240250Z 03022KT 14/14 A2993 RMK A01 T01440137  RH  095%=      5-min Rain = 0
KSW1 240251Z 03021KT 14/14 A2993 RMK A01 T01440137  RH  095%=      5-min Rain = 0
KSW1 240252Z 03022KT 14/14 A2993 RMK A01 T01440137  RH  095%=      5-min Rain = 0
KSW1 240253Z 03019KT 14/14 A2993 RMK A01 T01440137  RH  095%=      5-min Rain = 0
KSW1 240254Z 03020G25KT 14/14 A2993 RMK A01 T01440137  RH  096%=      5-min Rain = 0
KSW1 240255Z 02018G23KT 14/14 A2993 RMK A01 T01430137  RH  096%=      5-min Rain = 0
KSW1 240256Z 02019G24KT 14/14 A2993 RMK A01 T01430136  RH  096%=      5-min Rain = 0.01
KSW1 240257Z 02019G24KT 14/14 A2994 RMK A01 T01430136  RH  096%=      5-min Rain = 0
KSW1 240258Z 01016KT 14/14 A2994 RMK A01 T01430136  RH  096%=      5-min Rain = 0
KSW1 240259Z 01017G22KT 14/14 A2995 RMK A01 T01430136  RH  096%=      5-min Rain = 0
KSW1 240300Z 00018KT 14/14 A2995 RMK A01 T01430136  RH  096%=      5-min Rain = 0
KSW1 240301Z 01019KT 14/14 A2996 RMK A01 T01430136  RH  096%=      5-min Rain = 0
KSW1 240302Z 01015KT 14/14 A2997 RMK A01 T01420136  RH  096%=      5-min Rain = 0
KSW1 240303Z 36014KT 14/14 A2998 RMK A01 T01430136  RH  096%=      5-min Rain = 0.01
KSW1 240304Z 36014KT 14/14 A2999 RMK A01 T01430136  RH  096%=      5-min Rain = 0
KSW1 240305Z 01013KT 14/14 A2999 RMK A01 T01430136  RH  096%=      5-min Rain = 0
KSW1 240306Z 01008KT 14/14 A2999 RMK A01 T01430136  RH  096%=      5-min Rain = 0.01
KSW1 240307Z 01010G15KT 14/14 A30 RMK A01 T01430136  RH  096%=      5-min Rain = 0.01
KSW1 240308Z 02009KT 14/14 A30 RMK A01 T01430136  RH  096%=      5-min Rain = 0.01
KSW1 240309Z 03009KT 14/14 A3001 RMK A01 T01430136  RH  096%=      5-min Rain = 0.02
KSW1 240310Z 03007G12KT 14/14 A3001 RMK A01 T01430136  RH  096%=      5-min Rain = 0.02
KSW1 240311Z 07003KT 14/14 A3002 RMK A01 T01430136  RH  096%=      5-min Rain = 0.03
KSW1 240312Z 10002KT 14/14 A3003 RMK A01 T01420136  RH  096%=      5-min Rain = 0.01
KSW1 240313Z 08004KT 14/14 A3004 RMK A01 T01430137  RH  096%=      5-min Rain = 0.02
KSW1 240314Z 12003KT 14/14 A3005 RMK A01 T01430137  RH  096%=      5-min Rain = 0.04
KSW1 240315Z 15005KT 14/14 A3005 RMK A01 T01430137  RH  096%=      5-min Rain = 0.05
KSW1 240316Z 13006KT 14/14 A3005 RMK A01 T01430137  RH  096%=      5-min Rain = 0.03
KSW1 240317Z 13007KT 14/14 A3005 RMK A01 T01430137  RH  096%=      5-min Rain = 0.01
KSW1 240318Z 12007KT 14/14 A3005 RMK A01 T01420137  RH  096%=      5-min Rain = 0.02
KSW1 240319Z 12007KT 14/14 A3005 RMK A01 T01420136  RH  096%=      5-min Rain = 0.02
KSW1 240320Z 11010KT 14/14 A3005 RMK A01 T01410135  RH  096%=      5-min Rain = 0.01
KSW1 240321Z 10008KT 14/13 A3005 RMK A01 T01400133  RH  096%=      5-min Rain = 0.01
KSW1 240322Z 10007KT 14/13 A3004 RMK A01 T01390133  RH  096%=      5-min Rain = 0
KSW1 240323Z 08006KT 14/13 A3004 RMK A01 T01390133  RH  096%=      5-min Rain = 0.01
KSW1 240324Z 07005KT 14/13 A3004 RMK A01 T01390133  RH  096%=      5-min Rain = 0.01
KSW1 240325Z 05006KT 14/13 A3004 RMK A01 T01390133  RH  096%=      5-min Rain = 0.01
KSW1 240326Z 04007KT 14/13 A3004 RMK A01 T01390133  RH  097%=      5-min Rain = 0.01
KSW1 240327Z 03007KT 14/13 A3005 RMK A01 T01390134  RH  097%=      5-min Rain = 0
KSW1 240328Z 02006KT 14/14 A3005 RMK A01 T01400135  RH  097%=      5-min Rain = 0.01
KSW1 240329Z 00007KT 14/14 A3006 RMK A01 T01400135  RH  097%=      5-min Rain = 0.01
KSW1 240330Z 34007KT 14/14 A3007 RMK A01 T01400136  RH  097%=      5-min Rain = 0
KSW1 240331Z 34006KT 14/14 A3007 RMK A01 T01410136  RH  097%=      5-min Rain = 0.01
KSW1 240332Z 34005KT 14/14 A3007 RMK A01 T01410136  RH  097%=      5-min Rain = 0.02
KSW1 240333Z 35004KT 14/14 A3007 RMK A01 T01410137  RH  097%=      5-min Rain = 0
KSW1 240334Z 35006KT 14/14 A3007 RMK A01 T01410136  RH  097%=      5-min Rain = 0.01
KSW1 240335Z 35006KT 14/14 A3007 RMK A01 T01410136  RH  097%=      5-min Rain = 0.01
KSW1 240336Z 35006KT 14/14 A3007 RMK A01 T01410136  RH  097%=      5-min Rain = 0
KSW1 240337Z 35007KT 14/14 A3007 RMK A01 T01410136  RH  097%=      5-min Rain = 0.01
KSW1 240338Z 34009KT 14/14 A3007 RMK A01 T01410136  RH  097%=      5-min Rain = 0
KSW1 240339Z 33011KT 14/14 A3007 RMK A01 T01410136  RH  097%=      5-min Rain = 0.01
KSW1 240340Z 32012KT 14/14 A3008 RMK A01 T01410137  RH  097%=      5-min Rain = 0
KSW1 240341Z 33012KT 14/14 A3008 RMK A01 T01410137  RH  097%=      5-min Rain = 0.02
KSW1 240342Z 01010KT 14/14 A3007 RMK A01 T01410137  RH  097%=      5-min Rain = 0.01
KSW1 240343Z 03010KT 14/14 A3006 RMK A01 T01410136  RH  097%=      5-min Rain = 0
KSW1 240344Z 03009KT 14/14 A3005 RMK A01 T01400136  RH  097%=      5-min Rain = 0.01
KSW1 240345Z 01007KT 14/14 A3005 RMK A01 T01400136  RH  097%=      5-min Rain = 0
KSW1 240346Z 36007KT 14/14 A3005 RMK A01 T01400136  RH  097%=      5-min Rain = 0
KSW1 240347Z 36008KT 14/14 A3005 RMK A01 T01400136  RH  097%=      5-min Rain = 0.01
KSW1 240348Z 35009KT 14/14 A3005 RMK A01 T01400136  RH  097%=      5-min Rain = 0
KSW1 240349Z 36009KT 14/14 A3005 RMK A01 T01400136  RH  097%=      5-min Rain = 0.01
KSW1 240350Z 00009KT 14/14 A3005 RMK A01 T01400136  RH  097%=      5-min Rain = 0
KSW1 240351Z 35008KT 14/14 A3004 RMK A01 T01400136  RH  097%=      5-min Rain = 0.01
KSW1 240352Z 34007KT 14/14 A3004 RMK A01 T01400136  RH  097%=      5-min Rain = 0
KSW1 240353Z 33007KT 14/14 A3004 RMK A01 T01400136  RH  097%=      5-min Rain = 0
KSW1 240354Z 34005KT 14/14 A3004 RMK A01 T01400136  RH  097%=      5-min Rain = 0
KSW1 240355Z 35006KT 14/14 A3005 RMK A01 T01400136  RH  097%=      5-min Rain = 0.01
KSW1 240356Z 35008KT 14/14 A3005 RMK A01 T01400136  RH  097%=      5-min Rain = 0
KSW1 240357Z 35010KT 14/14 A3005 RMK A01 T01400136  RH  097%=      5-min Rain = 0
KSW1 240358Z 35009KT 14/14 A3005 RMK A01 T01400136  RH  097%=      5-min Rain = 0
KSW1 240359Z 36009KT 14/14 A3004 RMK A01 T01400136  RH  097%=      5-min Rain = 0.01
KSW1 240400Z 36012KT 14/14 A3004 RMK A01 T01400136  RH  097%=      5-min Rain = 0
KSW1 240401Z 36012KT 14/14 A3003 RMK A01 T01400135  RH  097%=      5-min Rain = 0
KSW1 240402Z 00014KT 14/14 A3002 RMK A01 T01390135  RH  097%=      5-min Rain = 0
KSW1 240403Z 00016KT 14/14 A3001 RMK A01 T01400135  RH  097%=      5-min Rain = 0
KSW1 240404Z 00015KT 14/14 A3001 RMK A01 T01390135  RH  097%=      5-min Rain = 0.01
KSW1 240405Z 01017KT 14/14 A30 RMK A01 T01390135  RH  097%=      5-min Rain = 0
KSW1 240406Z 00019KT 14/14 A30 RMK A01 T01390135  RH  097%=      5-min Rain = 0
KSW1 240407Z 00019G24KT 14/13 A2999 RMK A01 T01380134  RH  097%=      5-min Rain = 0
KSW1 240408Z 01018G23KT 14/13 A2999 RMK A01 T01380134  RH  097%=      5-min Rain = 0
KSW1 240409Z 01020G25KT 14/13 A2999 RMK A01 T01380134  RH  097%=      5-min Rain = 0
KSW1 240410Z 01020KT 14/13 A2998 RMK A01 T01380134  RH  097%=      5-min Rain = 0.01
KSW1 240411Z 01021KT 14/13 A2998 RMK A01 T01380134  RH  097%=      5-min Rain = 0
KSW1 240412Z 01018KT 14/13 A2997 RMK A01 T01370133  RH  097%=      5-min Rain = 0
KSW1 240413Z 01019G24KT 14/13 A2997 RMK A01 T01370133  RH  097%=      5-min Rain = 0
KSW1 240414Z 02019KT 14/13 A2997 RMK A01 T01370133  RH  097%=      5-min Rain = 0
KSW1 240415Z 02017KT 14/13 A2998 RMK A01 T01370133  RH  097%=      5-min Rain = 0
KSW1 240416Z 02017KT 14/13 A2998 RMK A01 T01370132  RH  097%=      5-min Rain = 0
KSW1 240417Z 02018KT 14/13 A2999 RMK A01 T01370133  RH  097%=      5-min Rain = 0
KSW1 240418Z 02016KT 14/13 A2998 RMK A01 T01370133  RH  097%=      5-min Rain = 0
KSW1 240419Z 02018KT 14/13 A2998 RMK A01 T01360132  RH  097%=      5-min Rain = 0
KSW1 240420Z 02017G22KT 14/13 A2998 RMK A01 T01360132  RH  097%=      5-min Rain = 0
KSW1 240421Z 02018KT 14/13 A2998 RMK A01 T01360132  RH  097%=      5-min Rain = 0
KSW1 240422Z 03020KT 14/13 A2998 RMK A01 T01360132  RH  097%=      5-min Rain = 0
KSW1 240423Z 03019G24KT 14/13 A2998 RMK A01 T01360132  RH  097%=      5-min Rain = 0
KSW1 240424Z 03021G26KT 14/13 A2998 RMK A01 T01360132  RH  097%=      5-min Rain = 0
KSW1 240425Z 03018KT 14/13 A2999 RMK A01 T01360131  RH  097%=      5-min Rain = 0
KSW1 240426Z 03014KT 14/13 A2999 RMK A01 T01360131  RH  097%=      5-min Rain = 0
KSW1 240427Z 03021KT 14/13 A2999 RMK A01 T01360131  RH  097%=      5-min Rain = 0
KSW1 240428Z 03016G21KT 14/13 A2999 RMK A01 T01360131  RH  097%=      5-min Rain = 0
KSW1 240429Z 03018KT 14/13 A2999 RMK A01 T01360131  RH  097%=      5-min Rain = 0
KSW1 240430Z 04014KT 14/13 A2999 RMK A01 T01360131  RH  097%=      5-min Rain = 0
KSW1 240431Z 04015KT 14/13 A2999 RMK A01 T01360130  RH  097%=      5-min Rain = 0
KSW1 240432Z 04015KT 14/13 A2999 RMK A01 T01360130  RH  097%=      5-min Rain = 0
KSW1 240433Z 04014KT 14/13 A2999 RMK A01 T01360130  RH  096%=      5-min Rain = 0
KSW1 240434Z 04015KT 14/13 A2999 RMK A01 T01360130  RH  096%=      5-min Rain = 0
KSW1 240435Z 04013KT 14/13 A2999 RMK A01 T01360130  RH  096%=      5-min Rain = 0
KSW1 240436Z 04014KT 14/13 A2999 RMK A01 T01360130  RH  096%=      5-min Rain = 0
KSW1 240437Z 04013KT 14/13 A2999 RMK A01 T01360130  RH  096%=      5-min Rain = 0
KSW1 240438Z 04014KT 14/13 A2999 RMK A01 T01360130  RH  096%=      5-min Rain = 0
KSW1 240439Z 04015KT 14/13 A2999 RMK A01 T01360130  RH  096%=      5-min Rain = 0
KSW1 240440Z 04015KT 14/13 A2999 RMK A01 T01360129  RH  096%=      5-min Rain = 0
KSW1 240441Z 04013KT 14/13 A2998 RMK A01 T01360129  RH  096%=      5-min Rain = 0
KSW1 240442Z 05012KT 14/13 A2998 RMK A01 T01360129  RH  096%=      5-min Rain = 0
KSW1 240443Z 05012KT 14/13 A2998 RMK A01 T01360129  RH  096%=      5-min Rain = 0
KSW1 240444Z 05012KT 14/13 A2998 RMK A01 T01360129  RH  096%=      5-min Rain = 0
KSW1 240445Z 05014KT 14/13 A2998 RMK A01 T01360129  RH  096%=      5-min Rain = 0
KSW1 240446Z 05014KT 14/13 A2998 RMK A01 T01360129  RH  096%=      5-min Rain = 0
KSW1 240447Z 05013KT 14/13 A2998 RMK A01 T01360129  RH  096%=      5-min Rain = 0
KSW1 240448Z 04012KT 14/13 A2998 RMK A01 T01360129  RH  096%=      5-min Rain = 0
KSW1 240449Z 05013KT 14/13 A2998 RMK A01 T01360129  RH  096%=      5-min Rain = 0
KSW1 240450Z 05013KT 14/13 A2997 RMK A01 T01350129  RH  096%=      5-min Rain = 0
KSW1 240451Z 05014KT 14/13 A2997 RMK A01 T01350129  RH  096%=      5-min Rain = 0
KSW1 240452Z 05014KT 14/13 A2998 RMK A01 T01350129  RH  096%=      5-min Rain = 0
KSW1 240453Z 05011KT 14/13 A2998 RMK A01 T01350129  RH  096%=      5-min Rain = 0
KSW1 240454Z 05012KT 14/13 A2998 RMK A01 T01350129  RH  096%=      5-min Rain = 0
KSW1 240455Z 05009KT 14/13 A2998 RMK A01 T01350129  RH  096%=      5-min Rain = 0
KSW1 240456Z 04010KT 14/13 A2998 RMK A01 T01350129  RH  096%=      5-min Rain = 0
KSW1 240457Z 05012KT 14/13 A2999 RMK A01 T01350129  RH  096%=      5-min Rain = 0
KSW1 240458Z 04011KT 14/13 A2999 RMK A01 T01350129  RH  096%=      5-min Rain = 0
KSW1 240459Z 04012KT 14/13 A2999 RMK A01 T01350129  RH  096%=      5-min Rain = 0

Page generated in 0.0728 seconds.